Wetterdaten: Freitag, 18.08.2023
Datum Zeit Temp. Aussen Temp. o. S. Temp +5cm Feuchte Auss Luftdruck Regen Sonnenschein Regendauer Solar Windben Empfang
18.08.2023 00:00 18,4 C 17,8 C 14,4 C 96 % 1018,4 hPa 0,0 l/m 0 min 0 min 0 W/m 6,4 km/h (2 Bft) 100,00 %
18.08.2023 00:02 18,4 C 17,8 C 14,4 C 96 % 1018,4 hPa 0,0 l/m 0 min 0 min 0 W/m 12,9 km/h (3 Bft) 100,00 %
18.08.2023 00:04 18,4 C 17,8 C 14,4 C 97 % 1018,3 hPa 0,0 l/m 0 min 0 min 0 W/m 0,0 km/h (0 Bft) 95,92 %
18.08.2023 00:08 18,4 C 17,8 C 14,4 C 97 % 1018,3 hPa 0,0 l/m 0 min 0 min 0 W/m 12,9 km/h (3 Bft) 98,81 %
18.08.2023 00:10 18,4 C 17,8 C 14,4 C 97 % 1018,3 hPa 0,0 l/m 0 min 0 min 0 W/m 12,9 km/h (3 Bft) 100,00 %
18.08.2023 00:12 18,4 C 17,8 C 14,4 C 97 % 1018,2 hPa 0,0 l/m 0 min 0 min 0 W/m 12,9 km/h (3 Bft) 100,00 %
18.08.2023 00:14 18,4 C 17,8 C 14,4 C 97 % 1018,2 hPa 0,0 l/m 0 min 0 min 0 W/m 6,4 km/h (2 Bft) 100,00 %
18.08.2023 00:16 18,4 C 17,8 C 14,4 C 97 % 1018,2 hPa 0,0 l/m 0 min 0 min 0 W/m 12,9 km/h (3 Bft) 100,00 %
18.08.2023 00:18 18,4 C 17,8 C 14,4 C 97 % 1018,2 hPa 0,0 l/m 0 min 0 min 0 W/m 3,2 km/h (1 Bft) 100,00 %
18.08.2023 00:20 18,4 C 17,8 C 14,4 C 97 % 1018,2 hPa 0,0 l/m 0 min 0 min 0 W/m 6,4 km/h (2 Bft) 100,00 %
18.08.2023 00:22 18,4 C 17,2 C 14,4 C 97 % 1018,1 hPa 0,0 l/m 0 min 0 min 0 W/m 6,4 km/h (2 Bft) 100,00 %
18.08.2023 00:24 18,4 C 17,2 C 14,4 C 97 % 1018,1 hPa 0,0 l/m 0 min 0 min 0 W/m 9,7 km/h (2 Bft) 100,00 %
18.08.2023 00:26 18,3 C 17,2 C 14,4 C 97 % 1018,1 hPa 0,0 l/m 0 min 0 min 0 W/m 6,4 km/h (2 Bft) 100,00 %
18.08.2023 00:28 18,3 C 17,2 C 14,4 C 97 % 1018,1 hPa 0,0 l/m 0 min 0 min 0 W/m 3,2 km/h (1 Bft) 100,00 %
18.08.2023 00:30 18,3 C 17,2 C 13,9 C 97 % 1018,0 hPa 0,0 l/m 0 min 0 min 0 W/m 9,7 km/h (2 Bft) 100,00 %
18.08.2023 00:32 18,3 C 17,2 C 13,9 C 97 % 1018,0 hPa 0,0 l/m 0 min 0 min 0 W/m 9,7 km/h (2 Bft) 100,00 %
18.08.2023 00:34 18,3 C 17,2 C 13,9 C 97 % 1018,0 hPa 0,0 l/m 0 min 0 min 0 W/m 3,2 km/h (1 Bft) 100,00 %
18.08.2023 00:36 18,2 C 17,2 C 13,9 C 97 % 1018,0 hPa 0,0 l/m 0 min 0 min 0 W/m 6,4 km/h (2 Bft) 97,87 %
18.08.2023 00:38 18,2 C 17,2 C 13,9 C 97 % 1018,0 hPa 0,0 l/m 0 min 0 min 0 W/m 3,2 km/h (1 Bft) 100,00 %
18.08.2023 00:40 18,2 C 17,2 C 13,9 C 97 % 1018,0 hPa 0,0 l/m 0 min 0 min 0 W/m 9,7 km/h (2 Bft) 100,00 %
18.08.2023 00:42 18,2 C 17,2 C 13,9 C 97 % 1018,1 hPa 0,0 l/m 0 min 0 min 0 W/m 9,7 km/h (2 Bft) 100,00 %
18.08.2023 00:44 18,2 C 17,2 C 13,9 C 97 % 1018,0 hPa 0,0 l/m 0 min 0 min 0 W/m 6,4 km/h (2 Bft) 100,00 %
18.08.2023 00:46 18,2 C 17,2 C 13,9 C 97 % 1018,1 hPa 0,0 l/m 0 min 0 min 0 W/m 6,4 km/h (2 Bft) 95,74 %
18.08.2023 00:48 18,2 C 17,2 C 13,9 C 97 % 1018,0 hPa 0,0 l/m 0 min 0 min 0 W/m 9,7 km/h (2 Bft) 97,87 %
18.08.2023 00:50 18,2 C 17,2 C 13,9 C 97 % 1018,0 hPa 0,0 l/m 0 min 0 min 0 W/m 6,4 km/h (2 Bft) 97,87 %
18.08.2023 00:52 18,2 C 17,2 C 13,9 C 97 % 1017,9 hPa 0,0 l/m 0 min 0 min 0 W/m 6,4 km/h (2 Bft) 97,83 %
18.08.2023 00:54 18,1 C 17,2 C 13,9 C 97 % 1017,9 hPa 0,0 l/m 0 min 0 min 0 W/m 6,4 km/h (2 Bft) 95,74 %
18.08.2023 00:56 18,1 C 17,2 C 13,9 C 97 % 1017,9 hPa 0,0 l/m 0 min 0 min 0 W/m 9,7 km/h (2 Bft) 97,87 %
18.08.2023 00:58 18,1 C 17,2 C 13,9 C 97 % 1017,9 hPa 0,0 l/m 0 min 0 min 0 W/m 6,4 km/h (2 Bft) 97,87 %
18.08.2023 01:00 18,1 C 17,2 C 13,9 C 97 % 1017,9 hPa 0,0 l/m 0 min 0 min 0 W/m 6,4 km/h (2 Bft) 97,87 %
18.08.2023 01:02 18,1 C 17,2 C 13,9 C 97 % 1018,0 hPa 0,0 l/m 0 min 0 min 0 W/m 3,2 km/h (1 Bft) 97,87 %
18.08.2023 01:04 18,1 C 17,2 C 13,9 C 97 % 1018,0 hPa 0,0 l/m 0 min 0 min 0 W/m 6,4 km/h (2 Bft) 97,96 %
18.08.2023 01:06 18,1 C 17,2 C 13,9 C 97 % 1018,0 hPa 0,0 l/m 0 min 0 min 0 W/m 3,2 km/h (1 Bft) 96,61 %
18.08.2023 01:08 18,1 C 17,2 C 13,9 C 97 % 1018,0 hPa 0,0 l/m 0 min 0 min 0 W/m 3,2 km/h (1 Bft) 94,29 %
18.08.2023 01:10 18,1 C 17,2 C 13,9 C 97 % 1018,0 hPa 0,0 l/m 0 min 0 min 0 W/m 3,2 km/h (1 Bft) 95,74 %
18.08.2023 01:12 18,1 C 17,2 C 13,9 C 97 % 1018,0 hPa 0,0 l/m 0 min 0 min 0 W/m 6,4 km/h (2 Bft) 95,74 %
18.08.2023 01:14 18,1 C 17,2 C 13,9 C 97 % 1017,9 hPa 0,0 l/m 0 min 0 min 0 W/m 3,2 km/h (1 Bft) 95,74 %
18.08.2023 01:16 18,1 C 17,2 C 13,9 C 97 % 1017,8 hPa 0,0 l/m 0 min 0 min 0 W/m 6,4 km/h (2 Bft) 95,74 %
18.08.2023 01:18 18,1 C 17,2 C 13,9 C 97 % 1017,9 hPa 0,0 l/m 0 min 0 min 0 W/m 6,4 km/h (2 Bft) 93,48 %
18.08.2023 01:20 18,1 C 17,2 C 13,9 C 97 % 1017,9 hPa 0,0 l/m 0 min 0 min 0 W/m 6,4 km/h (2 Bft) 97,87 %
18.08.2023 01:22 18,0 C 17,2 C 13,9 C 97 % 1017,8 hPa 0,0 l/m 0 min 0 min 0 W/m 6,4 km/h (2 Bft) 97,87 %
18.08.2023 01:24 18,0 C 16,7 C 13,9 C 97 % 1017,8 hPa 0,0 l/m 0 min 0 min 0 W/m 3,2 km/h (1 Bft) 97,87 %
18.08.2023 01:26 18,0 C 16,7 C 13,9 C 97 % 1017,8 hPa 0,0 l/m 0 min 0 min 0 W/m 6,4 km/h (2 Bft) 97,87 %
18.08.2023 01:28 17,9 C 16,7 C 13,9 C 97 % 1017,7 hPa 0,0 l/m 0 min 0 min 0 W/m 6,4 km/h (2 Bft) 97,87 %
18.08.2023 01:30 17,9 C 16,7 C 13,9 C 97 % 1017,7 hPa 0,0 l/m 0 min 0 min 0 W/m 3,2 km/h (1 Bft) 97,83 %
18.08.2023 01:32 17,9 C 16,7 C 13,9 C 97 % 1017,7 hPa 0,0 l/m 0 min 0 min 0 W/m 6,4 km/h (2 Bft) 97,87 %
18.08.2023 01:34 17,9 C 16,7 C 13,9 C 97 % 1017,7 hPa 0,0 l/m 0 min 0 min 0 W/m 6,4 km/h (2 Bft) 97,87 %
18.08.2023 01:36 17,9 C 16,7 C 13,9 C 97 % 1017,6 hPa 0,0 l/m 0 min 0 min 0 W/m 3,2 km/h (1 Bft) 93,62 %
18.08.2023 01:38 17,9 C 16,7 C 13,9 C 97 % 1017,7 hPa 0,0 l/m 0 min 0 min 0 W/m 9,7 km/h (2 Bft) 97,87 %
18.08.2023 01:40 17,9 C 16,7 C 13,9 C 97 % 1017,6 hPa 0,0 l/m 0 min 0 min 0 W/m 6,4 km/h (2 Bft) 97,87 %
18.08.2023 01:42 17,9 C 16,7 C 13,9 C 97 % 1017,6 hPa 0,0 l/m 0 min 0 min 0 W/m 0,0 km/h (0 Bft) 97,87 %
18.08.2023 01:44 17,8 C 16,7 C 13,9 C 97 % 1017,6 hPa 0,0 l/m 0 min 0 min 0 W/m 0,0 km/h (0 Bft) 98,15 %
18.08.2023 01:46 17,8 C 16,7 C 13,9 C 97 % 1017,5 hPa 0,0 l/m 0 min 0 min 0 W/m 0,0 km/h (0 Bft) 94,74 %
18.08.2023 01:48 17,8 C 16,7 C 13,9 C 97 % 1017,6 hPa 0,0 l/m 0 min 0 min 0 W/m 6,4 km/h (2 Bft) 97,87 %
18.08.2023 01:50 17,8 C 16,7 C 13,9 C 97 % 1017,6 hPa 0,0 l/m 0 min 0 min 0 W/m 9,7 km/h (2 Bft) 97,92 %
18.08.2023 01:52 17,8 C 16,7 C 13,9 C 97 % 1017,6 hPa 0,0 l/m 0 min 0 min 0 W/m 6,4 km/h (2 Bft) 95,74 %
18.08.2023 01:54 17,8 C 16,7 C 13,9 C 97 % 1017,6 hPa 0,0 l/m 0 min 0 min 0 W/m 3,2 km/h (1 Bft) 97,87 %
18.08.2023 01:56 17,8 C 16,7 C 13,9 C 97 % 1017,6 hPa 0,0 l/m 0 min 0 min 0 W/m 3,2 km/h (1 Bft) 97,83 %
18.08.2023 01:58 17,7 C 16,7 C 13,9 C 97 % 1017,5 hPa 0,0 l/m 0 min 0 min 0 W/m 3,2 km/h (1 Bft) 93,62 %
18.08.2023 02:00 17,7 C 16,7 C 13,9 C 97 % 1017,5 hPa 0,0 l/m 0 min 0 min 0 W/m 3,2 km/h (1 Bft) 95,74 %
18.08.2023 02:02 17,7 C 16,7 C 13,3 C 97 % 1017,5 hPa 0,0 l/m 0 min 0 min 0 W/m 6,4 km/h (2 Bft) 97,87 %
18.08.2023 02:04 17,7 C 16,7 C 13,3 C 97 % 1017,5 hPa 0,0 l/m 0 min 0 min 0 W/m 3,2 km/h (1 Bft) 91,49 %
18.08.2023 02:06 17,7 C 16,7 C 13,3 C 97 % 1017,5 hPa 0,0 l/m 0 min 0 min 0 W/m 6,4 km/h (2 Bft) 97,87 %
18.08.2023 02:08 17,6 C 16,7 C 13,3 C 97 % 1017,5 hPa 0,0 l/m 0 min 0 min 0 W/m 3,2 km/h (1 Bft) 97,83 %
18.08.2023 02:10 17,6 C 16,7 C 13,3 C 97 % 1017,5 hPa 0,0 l/m 0 min 0 min 0 W/m 6,4 km/h (2 Bft) 95,74 %
18.08.2023 02:12 17,6 C 16,7 C 13,3 C 97 % 1017,5 hPa 0,0 l/m 0 min 0 min 0 W/m 3,2 km/h (1 Bft) 97,87 %
18.08.2023 02:14 17,6 C 16,7 C 13,3 C 97 % 1017,5 hPa 0,0 l/m 0 min 0 min 0 W/m 3,2 km/h (1 Bft) 97,87 %
18.08.2023 02:15 17,6 C 16,7 C 13,3 C 97 % 1017,5 hPa 0,0 l/m 0 min 0 min 0 W/m 3,2 km/h (1 Bft) 99,12 %
18.08.2023 02:18 17,6 C 16,7 C 13,3 C 97 % 1017,6 hPa 0,0 l/m 0 min 0 min 0 W/m 0,0 km/h (0 Bft) 100,00 %
18.08.2023 02:20 17,6 C 16,7 C 13,3 C 97 % 1017,6 hPa 0,0 l/m 0 min 0 min 0 W/m 0,0 km/h (0 Bft) 100,00 %
18.08.2023 02:22 17,6 C 16,7 C 13,3 C 97 % 1017,5 hPa 0,0 l/m 0 min 0 min 0 W/m 3,2 km/h (1 Bft) 95,12 %
18.08.2023 02:24 17,5 C 16,7 C 13,3 C 97 % 1017,5 hPa 0,0 l/m 0 min 0 min 0 W/m 0,0 km/h (0 Bft) 97,96 %
18.08.2023 02:26 17,5 C 16,7 C 13,3 C 97 % 1017,5 hPa 0,0 l/m 0 min 0 min 0 W/m 3,2 km/h (1 Bft) 95,74 %
18.08.2023 02:28 17,5 C 16,7 C 13,3 C 97 % 1017,4 hPa 0,0 l/m 0 min 0 min 0 W/m 3,2 km/h (1 Bft) 93,88 %
18.08.2023 02:30 17,4 C 16,7 C 13,3 C 97 % 1017,4 hPa 0,0 l/m 0 min 0 min 0 W/m 0,0 km/h (0 Bft) 95,74 %
18.08.2023 02:32 17,4 C 16,7 C 13,3 C 97 % 1017,4 hPa 0,0 l/m 0 min 0 min 0 W/m 3,2 km/h (1 Bft) 97,87 %
18.08.2023 02:34 17,4 C 16,7 C 13,3 C 97 % 1017,5 hPa 0,0 l/m 0 min 0 min 0 W/m 6,4 km/h (2 Bft) 95,74 %
18.08.2023 02:36 17,4 C 16,7 C 13,3 C 97 % 1017,4 hPa 0,0 l/m 0 min 0 min 0 W/m 3,2 km/h (1 Bft) 97,87 %
18.08.2023 02:38 17,4 C 16,1 C 13,3 C 97 % 1017,5 hPa 0,0 l/m 0 min 0 min 0 W/m 0,0 km/h (0 Bft) 97,87 %
18.08.2023 02:40 17,4 C 16,1 C 13,3 C 97 % 1017,4 hPa 0,0 l/m 0 min 0 min 0 W/m 3,2 km/h (1 Bft) 95,74 %
18.08.2023 02:42 17,4 C 16,1 C 13,3 C 97 % 1017,4 hPa 0,0 l/m 0 min 0 min 0 W/m 3,2 km/h (1 Bft) 97,87 %
18.08.2023 02:44 17,4 C 16,1 C 13,3 C 97 % 1017,5 hPa 0,0 l/m 0 min 0 min 0 W/m 3,2 km/h (1 Bft) 93,02 %
18.08.2023 02:46 17,3 C 16,1 C 13,3 C 97 % 1017,4 hPa 0,0 l/m 0 min 0 min 0 W/m 3,2 km/h (1 Bft) 95,74 %
18.08.2023 02:48 17,3 C 16,1 C 13,3 C 97 % 1017,5 hPa 0,0 l/m 0 min 0 min 0 W/m 0,0 km/h (0 Bft) 98,00 %
18.08.2023 02:50 17,3 C 16,1 C 13,3 C 97 % 1017,5 hPa 0,0 l/m 0 min 0 min 0 W/m 3,2 km/h (1 Bft) 95,74 %
18.08.2023 02:52 17,3 C 16,7 C 13,3 C 97 % 1017,5 hPa 0,0 l/m 0 min 0 min 0 W/m 0,0 km/h (0 Bft) 95,65 %
18.08.2023 02:54 17,3 C 16,7 C 13,3 C 97 % 1017,5 hPa 0,0 l/m 0 min 0 min 0 W/m 0,0 km/h (0 Bft) 100,00 %
18.08.2023 02:56 17,3 C 16,1 C 13,3 C 97 % 1017,5 hPa 0,0 l/m 0 min 0 min 0 W/m 3,2 km/h (1 Bft) 95,74 %
18.08.2023 02:58 17,3 C 16,1 C 13,3 C 97 % 1017,5 hPa 0,0 l/m 0 min 0 min 0 W/m 0,0 km/h (0 Bft) 95,74 %
18.08.2023 03:00 17,3 C 16,7 C 13,3 C 97 % 1017,4 hPa 0,0 l/m 0 min 0 min 0 W/m 6,4 km/h (2 Bft) 97,87 %
18.08.2023 03:02 17,3 C 16,7 C 13,3 C 97 % 1017,5 hPa 0,0 l/m 0 min 0 min 0 W/m 0,0 km/h (0 Bft) 95,74 %
18.08.2023 03:04 17,3 C 16,7 C 13,3 C 97 % 1017,4 hPa 0,0 l/m 0 min 0 min 0 W/m 0,0 km/h (0 Bft) 97,87 %
18.08.2023 03:06 17,3 C 16,7 C 13,3 C 97 % 1017,4 hPa 0,0 l/m 0 min 0 min 0 W/m 0,0 km/h (0 Bft) 98,31 %
18.08.2023 03:08 17,3 C 16,7 C 13,3 C 97 % 1017,4 hPa 0,0 l/m 0 min 0 min 0 W/m 0,0 km/h (0 Bft) 97,14 %
18.08.2023 03:10 17,3 C 16,7 C 13,3 C 97 % 1017,4 hPa 0,0 l/m 0 min 0 min 0 W/m 3,2 km/h (1 Bft) 95,74 %
18.08.2023 03:12 17,3 C 16,7 C 13,3 C 97 % 1017,4 hPa 0,0 l/m 0 min 0 min 0 W/m 3,2 km/h (1 Bft) 100,00 %
18.08.2023 03:14 17,3 C 16,7 C 13,3 C 97 % 1017,4 hPa 0,0 l/m 0 min 0 min 0 W/m 0,0 km/h (0 Bft) 100,00 %
18.08.2023 03:16 17,3 C 16,7 C 13,3 C 97 % 1017,3 hPa 0,0 l/m 0 min 0 min 0 W/m 3,2 km/h (1 Bft) 97,87 %
18.08.2023 03:18 17,3 C 16,7 C 13,3 C 97 % 1017,3 hPa 0,0 l/m 0 min 0 min 0 W/m 6,4 km/h (2 Bft) 100,00 %
18.08.2023 03:20 17,3 C 16,7 C 13,3 C 97 % 1017,3 hPa 0,0 l/m 0 min 0 min 0 W/m 3,2 km/h (1 Bft) 100,00 %
18.08.2023 03:22 17,3 C 16,7 C 13,3 C 97 % 1017,3 hPa 0,0 l/m 0 min 0 min 0 W/m 6,4 km/h (2 Bft) 97,87 %
18.08.2023 03:24 17,3 C 16,7 C 13,3 C 97 % 1017,3 hPa 0,0 l/m 0 min 0 min 0 W/m 6,4 km/h (2 Bft) 95,65 %
18.08.2023 03:26 17,3 C 16,7 C 13,3 C 97 % 1017,3 hPa 0,0 l/m 0 min 0 min 0 W/m 6,4 km/h (2 Bft) 100,00 %
18.08.2023 03:28 17,3 C 16,7 C 13,3 C 98 % 1017,3 hPa 0,0 l/m 0 min 0 min 0 W/m 6,4 km/h (2 Bft) 97,87 %
18.08.2023 03:30 17,3 C 16,7 C 13,3 C 98 % 1017,2 hPa 0,0 l/m 0 min 0 min 0 W/m 3,2 km/h (1 Bft) 100,00 %
18.08.2023 03:32 17,3 C 16,7 C 13,3 C 98 % 1017,2 hPa 0,0 l/m 0 min 0 min 0 W/m 6,4 km/h (2 Bft) 100,00 %
18.08.2023 03:34 17,3 C 16,7 C 13,3 C 98 % 1017,1 hPa 0,0 l/m 0 min 0 min 0 W/m 3,2 km/h (1 Bft) 97,87 %
18.08.2023 03:36 17,3 C 16,7 C 13,3 C 98 % 1017,1 hPa 0,0 l/m 0 min 0 min 0 W/m 6,4 km/h (2 Bft) 97,87 %
18.08.2023 03:38 17,4 C 16,7 C 13,3 C 98 % 1017,1 hPa 0,0 l/m 0 min 0 min 0 W/m 3,2 km/h (1 Bft) 100,00 %
18.08.2023 03:40 17,4 C 16,7 C 13,3 C 98 % 1017,1 hPa 0,0 l/m 0 min 0 min 0 W/m 0,0 km/h (0 Bft) 100,00 %
18.08.2023 03:42 17,3 C 16,7 C 13,3 C 98 % 1017,2 hPa 0,0 l/m 0 min 0 min 0 W/m 9,7 km/h (2 Bft) 100,00 %
18.08.2023 03:44 17,4 C 16,7 C 13,3 C 98 % 1017,2 hPa 0,0 l/m 0 min 0 min 0 W/m 6,4 km/h (2 Bft) 100,00 %
18.08.2023 03:46 17,4 C 16,7 C 13,3 C 98 % 1017,2 hPa 0,0 l/m 0 min 0 min 0 W/m 6,4 km/h (2 Bft) 100,00 %
18.08.2023 03:48 17,4 C 16,7 C 13,3 C 98 % 1017,1 hPa 0,0 l/m 0 min 0 min 0 W/m 6,4 km/h (2 Bft) 100,00 %
18.08.2023 03:50 17,4 C 16,7 C 13,3 C 98 % 1017,1 hPa 0,0 l/m 0 min 0 min 0 W/m 3,2 km/h (1 Bft) 100,00 %
18.08.2023 03:52 17,4 C 16,7 C 13,3 C 98 % 1017,1 hPa 0,0 l/m 0 min 0 min 0 W/m 3,2 km/h (1 Bft) 100,00 %
18.08.2023 03:54 17,4 C 16,7 C 13,3 C 98 % 1017,1 hPa 0,0 l/m 0 min 0 min 0 W/m 6,4 km/h (2 Bft) 100,00 %
18.08.2023 03:56 17,4 C 16,7 C 13,9 C 98 % 1017,0 hPa 0,0 l/m 0 min 0 min 0 W/m 6,4 km/h (2 Bft) 100,00 %
18.08.2023 03:58 17,4 C 16,7 C 13,9 C 98 % 1017,0 hPa 0,0 l/m 0 min 0 min 0 W/m 3,2 km/h (1 Bft) 100,00 %
18.08.2023 04:00 17,4 C 16,7 C 13,9 C 98 % 1017,0 hPa 0,0 l/m 0 min 0 min 0 W/m 3,2 km/h (1 Bft) 100,00 %
18.08.2023 04:02 17,4 C 16,7 C 13,9 C 98 % 1017,0 hPa 0,0 l/m 0 min 0 min 0 W/m 3,2 km/h (1 Bft) 97,87 %
18.08.2023 04:04 17,4 C 16,7 C 13,9 C 98 % 1017,0 hPa 0,0 l/m 0 min 0 min 0 W/m 12,9 km/h (3 Bft) 98,00 %
18.08.2023 04:06 17,4 C 16,7 C 13,9 C 98 % 1016,9 hPa 0,0 l/m 0 min 0 min 0 W/m 6,4 km/h (2 Bft) 97,87 %
18.08.2023 04:08 17,4 C 16,7 C 13,9 C 98 % 1017,0 hPa 0,0 l/m 0 min 0 min 0 W/m 6,4 km/h (2 Bft) 95,74 %
18.08.2023 04:10 17,4 C 16,7 C 13,9 C 98 % 1017,0 hPa 0,0 l/m 0 min 0 min 0 W/m 3,2 km/h (1 Bft) 97,87 %
18.08.2023 04:12 17,4 C 16,7 C 13,9 C 98 % 1017,0 hPa 0,0 l/m 0 min 0 min 0 W/m 3,2 km/h (1 Bft) 95,74 %
18.08.2023 04:14 17,4 C 16,7 C 13,9 C 98 % 1017,0 hPa 0,0 l/m 0 min 0 min 0 W/m 6,4 km/h (2 Bft) 97,87 %
18.08.2023 04:16 17,4 C 16,7 C 13,9 C 98 % 1017,1 hPa 0,0 l/m 0 min 0 min 0 W/m 6,4 km/h (2 Bft) 97,83 %
18.08.2023 04:18 17,4 C 16,7 C 13,9 C 98 % 1016,9 hPa 0,0 l/m 0 min 0 min 0 W/m 9,7 km/h (2 Bft) 95,74 %
18.08.2023 04:20 17,4 C 16,7 C 13,9 C 98 % 1016,9 hPa 0,0 l/m 0 min 0 min 0 W/m 16,1 km/h (3 Bft) 97,87 %
18.08.2023 04:22 17,4 C 16,7 C 13,9 C 98 % 1016,9 hPa 0,0 l/m 0 min 0 min 0 W/m 9,7 km/h (2 Bft) 97,87 %
18.08.2023 04:24 17,4 C 16,7 C 13,9 C 98 % 1016,9 hPa 0,0 l/m 0 min 0 min 0 W/m 6,4 km/h (2 Bft) 95,74 %
18.08.2023 04:26 17,4 C 16,7 C 13,9 C 98 % 1016,9 hPa 0,0 l/m 0 min 0 min 0 W/m 12,9 km/h (3 Bft) 95,74 %
18.08.2023 04:28 17,4 C 16,7 C 13,9 C 98 % 1016,9 hPa 0,0 l/m 0 min 0 min 0 W/m 9,7 km/h (2 Bft) 95,65 %
18.08.2023 04:30 17,4 C 16,7 C 13,9 C 98 % 1016,9 hPa 0,0 l/m 0 min 0 min 0 W/m 6,4 km/h (2 Bft) 95,74 %
18.08.2023 04:33 17,4 C 16,7 C 13,3 C 98 % 1016,9 hPa 0,0 l/m 0 min 0 min 0 W/m 6,4 km/h (2 Bft) 97,18 %
18.08.2023 04:34 17,4 C 16,7 C 13,9 C 98 % 1016,9 hPa 0,0 l/m 0 min 0 min 0 W/m 0,0 km/h (0 Bft) 91,30 %
18.08.2023 04:35 17,4 C 16,7 C 13,9 C 98 % 1016,8 hPa 0,0 l/m 0 min 0 min 0 W/m 6,4 km/h (2 Bft) 97,37 %
18.08.2023 04:38 17,4 C 16,7 C 13,3 C 98 % 1016,8 hPa 0,0 l/m 0 min 0 min 0 W/m 6,4 km/h (2 Bft) 92,98 %
18.08.2023 04:40 17,4 C 16,7 C 13,3 C 98 % 1016,7 hPa 0,0 l/m 0 min 0 min 0 W/m 6,4 km/h (2 Bft) 93,48 %
18.08.2023 04:42 17,4 C 16,7 C 13,3 C 98 % 1016,8 hPa 0,0 l/m 0 min 0 min 0 W/m 6,4 km/h (2 Bft) 93,62 %
18.08.2023 04:44 17,4 C 16,7 C 13,3 C 98 % 1016,8 hPa 0,0 l/m 0 min 0 min 0 W/m 6,4 km/h (2 Bft) 93,62 %
18.08.2023 04:46 17,4 C 16,7 C 13,3 C 98 % 1016,8 hPa 0,0 l/m 0 min 0 min 0 W/m 3,2 km/h (1 Bft) 93,62 %
18.08.2023 04:48 17,4 C 16,7 C 13,3 C 98 % 1016,9 hPa 0,0 l/m 0 min 0 min 0 W/m 3,2 km/h (1 Bft) 95,74 %
18.08.2023 04:50 17,4 C 16,7 C 13,3 C 98 % 1016,9 hPa 0,0 l/m 0 min 0 min 0 W/m 6,4 km/h (2 Bft) 93,62 %
18.08.2023 04:52 17,4 C 16,7 C 13,3 C 98 % 1016,9 hPa 0,0 l/m 0 min 0 min 0 W/m 9,7 km/h (2 Bft) 95,74 %
18.08.2023 04:54 17,4 C 16,7 C 13,3 C 98 % 1016,9 hPa 0,0 l/m 0 min 0 min 0 W/m 6,4 km/h (2 Bft) 95,65 %
18.08.2023 04:56 17,4 C 16,7 C 13,3 C 98 % 1016,9 hPa 0,0 l/m 0 min 0 min 0 W/m 3,2 km/h (1 Bft) 95,74 %
18.08.2023 04:58 17,4 C 16,7 C 13,3 C 98 % 1016,8 hPa 0,0 l/m 0 min 0 min 0 W/m 12,9 km/h (3 Bft) 93,62 %
18.08.2023 05:00 17,4 C 16,7 C 13,3 C 98 % 1016,8 hPa 0,0 l/m 0 min 0 min 0 W/m 6,4 km/h (2 Bft) 95,74 %
18.08.2023 05:02 17,4 C 16,7 C 13,3 C 98 % 1016,7 hPa 0,0 l/m 0 min 0 min 0 W/m 3,2 km/h (1 Bft) 93,62 %
18.08.2023 05:04 17,4 C 16,7 C 13,3 C 98 % 1016,8 hPa 0,0 l/m 0 min 0 min 0 W/m 6,4 km/h (2 Bft) 95,12 %
18.08.2023 05:06 17,4 C 16,7 C 13,3 C 98 % 1016,8 hPa 0,0 l/m 0 min 0 min 0 W/m 6,4 km/h (2 Bft) 96,23 %
18.08.2023 05:08 17,4 C 16,7 C 13,3 C 98 % 1016,8 hPa 0,0 l/m 0 min 0 min 0 W/m 6,4 km/h (2 Bft) 97,87 %
18.08.2023 05:10 17,4 C 16,7 C 13,3 C 98 % 1016,8 hPa 0,0 l/m 0 min 0 min 0 W/m 12,9 km/h (3 Bft) 97,87 %
18.08.2023 05:12 17,4 C 16,7 C 13,3 C 98 % 1016,8 hPa 0,0 l/m 0 min 0 min 0 W/m 9,7 km/h (2 Bft) 95,74 %
18.08.2023 05:14 17,3 C 16,7 C 13,3 C 98 % 1016,8 hPa 0,0 l/m 0 min 0 min 0 W/m 16,1 km/h (3 Bft) 97,87 %
18.08.2023 05:16 17,3 C 16,7 C 13,3 C 98 % 1016,8 hPa 0,0 l/m 0 min 0 min 0 W/m 9,7 km/h (2 Bft) 97,87 %
18.08.2023 05:18 17,3 C 16,7 C 13,3 C 98 % 1016,8 hPa 0,0 l/m 0 min 0 min 0 W/m 6,4 km/h (2 Bft) 97,87 %
18.08.2023 05:20 17,3 C 16,7 C 13,3 C 98 % 1016,8 hPa 0,0 l/m 0 min 0 min 0 W/m 6,4 km/h (2 Bft) 97,83 %
18.08.2023 05:22 17,3 C 16,7 C 13,3 C 98 % 1016,8 hPa 0,0 l/m 0 min 0 min 0 W/m 6,4 km/h (2 Bft) 97,87 %
18.08.2023 05:24 17,3 C 16,7 C 13,3 C 98 % 1016,8 hPa 0,0 l/m 0 min 0 min 0 W/m 6,4 km/h (2 Bft) 97,87 %
18.08.2023 05:26 17,3 C 16,7 C 13,3 C 98 % 1016,8 hPa 0,0 l/m 0 min 0 min 0 W/m 6,4 km/h (2 Bft) 100,00 %
18.08.2023 05:28 17,3 C 16,7 C 13,3 C 98 % 1016,9 hPa 0,0 l/m 0 min 0 min 0 W/m 6,4 km/h (2 Bft) 97,87 %
18.08.2023 05:30 17,3 C 16,7 C 13,3 C 98 % 1016,9 hPa 0,0 l/m 0 min 0 min 0 W/m 12,9 km/h (3 Bft) 100,00 %
18.08.2023 05:32 17,3 C 16,7 C 13,3 C 98 % 1016,8 hPa 0,0 l/m 0 min 0 min 0 W/m 9,7 km/h (2 Bft) 100,00 %
18.08.2023 05:34 17,3 C 16,7 C 13,3 C 98 % 1016,8 hPa 0,0 l/m 0 min 0 min 0 W/m 9,7 km/h (2 Bft) 100,00 %
18.08.2023 05:36 17,3 C 16,7 C 13,3 C 98 % 1016,8 hPa 0,0 l/m 0 min 0 min 0 W/m 6,4 km/h (2 Bft) 100,00 %
18.08.2023 05:38 17,3 C 16,7 C 13,3 C 98 % 1016,8 hPa 0,0 l/m 0 min 0 min 0 W/m 9,7 km/h (2 Bft) 100,00 %
18.08.2023 05:40 17,3 C 16,7 C 13,3 C 98 % 1016,8 hPa 0,0 l/m 0 min 0 min 0 W/m 6,4 km/h (2 Bft) 100,00 %
18.08.2023 05:42 17,3 C 16,7 C 13,3 C 98 % 1016,9 hPa 0,0 l/m 0 min 0 min 0 W/m 9,7 km/h (2 Bft) 97,87 %
18.08.2023 05:44 17,3 C 16,7 C 13,3 C 98 % 1016,9 hPa 0,0 l/m 0 min 0 min 0 W/m 9,7 km/h (2 Bft) 100,00 %
18.08.2023 05:46 17,3 C 16,7 C 13,3 C 98 % 1016,8 hPa 0,0 l/m 0 min 0 min 0 W/m 6,4 km/h (2 Bft) 100,00 %
18.08.2023 05:48 17,3 C 16,7 C 13,3 C 98 % 1016,7 hPa 0,0 l/m 0 min 0 min 0 W/m 9,7 km/h (2 Bft) 100,00 %
18.08.2023 05:50 17,3 C 16,7 C 13,3 C 98 % 1016,8 hPa 0,0 l/m 0 min 0 min 0 W/m 6,4 km/h (2 Bft) 100,00 %
18.08.2023 05:52 17,3 C 16,7 C 13,3 C 98 % 1016,8 hPa 0,0 l/m 0 min 0 min 0 W/m 6,4 km/h (2 Bft) 100,00 %
18.08.2023 05:54 17,3 C 16,7 C 13,3 C 98 % 1016,8 hPa 0,0 l/m 0 min 0 min 0 W/m 9,7 km/h (2 Bft) 100,00 %
18.08.2023 05:56 17,3 C 16,7 C 13,3 C 98 % 1016,7 hPa 0,0 l/m 0 min 0 min 0 W/m 9,7 km/h (2 Bft) 100,00 %
18.08.2023 05:58 17,3 C 16,7 C 13,3 C 98 % 1016,8 hPa 0,0 l/m 0 min 0 min 0 W/m 9,7 km/h (2 Bft) 100,00 %
18.08.2023 06:00 17,3 C 16,7 C 13,3 C 98 % 1016,7 hPa 0,0 l/m 0 min 0 min 0 W/m 9,7 km/h (2 Bft) 100,00 %
18.08.2023 06:02 17,3 C 16,7 C 13,3 C 98 % 1016,8 hPa 0,0 l/m 0 min 0 min 0 W/m 9,7 km/h (2 Bft) 100,00 %
18.08.2023 06:04 17,3 C 16,7 C 13,3 C 98 % 1016,8 hPa 0,0 l/m 0 min 0 min 0 W/m 6,4 km/h (2 Bft) 100,00 %
18.08.2023 06:08 17,3 C 16,7 C 13,3 C 98 % 1016,8 hPa 0,0 l/m 0 min 0 min 0 W/m 12,9 km/h (3 Bft) 100,00 %
18.08.2023 06:10 17,3 C 16,7 C 13,3 C 98 % 1016,8 hPa 0,0 l/m 0 min 0 min 0 W/m 6,4 km/h (2 Bft) 100,00 %
18.08.2023 06:12 17,3 C 16,7 C 13,3 C 98 % 1016,8 hPa 0,0 l/m 0 min 0 min 0 W/m 9,7 km/h (2 Bft) 100,00 %
18.08.2023 06:14 17,3 C 16,7 C 13,3 C 98 % 1016,8 hPa 0,0 l/m 0 min 0 min 0 W/m 9,7 km/h (2 Bft) 100,00 %
18.08.2023 06:16 17,3 C 16,7 C 13,3 C 98 % 1016,8 hPa 0,0 l/m 0 min 0 min 0 W/m 6,4 km/h (2 Bft) 100,00 %
18.08.2023 06:18 17,3 C 16,7 C 13,3 C 98 % 1016,8 hPa 0,0 l/m 0 min 0 min 0 W/m 9,7 km/h (2 Bft) 100,00 %
18.08.2023 06:20 17,3 C 16,7 C 13,3 C 98 % 1016,9 hPa 0,0 l/m 0 min 0 min 0 W/m 6,4 km/h (2 Bft) 100,00 %
18.08.2023 06:22 17,3 C 16,7 C 13,3 C 98 % 1016,9 hPa 0,0 l/m 0 min 0 min 0 W/m 9,7 km/h (2 Bft) 100,00 %
18.08.2023 06:24 17,3 C 16,7 C 13,3 C 98 % 1017,0 hPa 0,0 l/m 0 min 0 min 0 W/m 9,7 km/h (2 Bft) 100,00 %
18.08.2023 06:26 17,3 C 16,7 C 13,3 C 98 % 1016,9 hPa 0,0 l/m 0 min 0 min 0 W/m 3,2 km/h (1 Bft) 97,83 %
18.08.2023 06:28 17,3 C 16,7 C 13,3 C 98 % 1017,0 hPa 0,0 l/m 0 min 0 min 0 W/m 6,4 km/h (2 Bft) 97,87 %
18.08.2023 06:30 17,3 C 16,7 C 13,3 C 99 % 1016,9 hPa 0,0 l/m 0 min 0 min 0 W/m 6,4 km/h (2 Bft) 97,87 %
18.08.2023 06:32 17,4 C 16,7 C 13,3 C 98 % 1016,9 hPa 0,0 l/m 0 min 0 min 0 W/m 3,2 km/h (1 Bft) 97,87 %
18.08.2023 06:34 17,4 C 16,7 C 13,3 C 98 % 1016,9 hPa 0,0 l/m 0 min 0 min 0 W/m 6,4 km/h (2 Bft) 97,87 %
18.08.2023 06:36 17,4 C 16,7 C 13,3 C 98 % 1016,9 hPa 0,0 l/m 0 min 0 min 0 W/m 6,4 km/h (2 Bft) 97,87 %
18.08.2023 06:38 17,4 C 16,7 C 13,3 C 98 % 1016,9 hPa 0,0 l/m 0 min 0 min 0 W/m 12,9 km/h (3 Bft) 95,65 %
18.08.2023 06:40 17,4 C 16,7 C 13,3 C 98 % 1016,8 hPa 0,0 l/m 0 min 0 min 5 W/m 9,7 km/h (2 Bft) 97,87 %
18.08.2023 06:42 17,4 C 16,7 C 13,3 C 98 % 1016,8 hPa 0,0 l/m 0 min 0 min 5 W/m 12,9 km/h (3 Bft) 95,74 %
18.08.2023 06:44 17,4 C 16,7 C 13,3 C 98 % 1016,9 hPa 0,0 l/m 0 min 0 min 5 W/m 6,4 km/h (2 Bft) 95,74 %
18.08.2023 06:46 17,4 C 16,7 C 13,3 C 99 % 1016,8 hPa 0,0 l/m 0 min 0 min 7 W/m 6,4 km/h (2 Bft) 97,87 %
18.08.2023 06:48 17,4 C 16,7 C 13,3 C 99 % 1016,9 hPa 0,0 l/m 0 min 0 min 7 W/m 6,4 km/h (2 Bft) 97,87 %
18.08.2023 06:50 17,4 C 16,7 C 13,3 C 99 % 1016,8 hPa 0,0 l/m 0 min 0 min 7 W/m 6,4 km/h (2 Bft) 97,87 %
18.08.2023 06:52 17,4 C 16,7 C 13,3 C 99 % 1016,8 hPa 0,0 l/m 0 min 0 min 7 W/m 12,9 km/h (3 Bft) 93,48 %
18.08.2023 06:54 17,4 C 16,7 C 13,3 C 99 % 1016,8 hPa 0,0 l/m 0 min 0 min 7 W/m 3,2 km/h (1 Bft) 95,74 %
18.08.2023 06:56 17,4 C 16,7 C 13,3 C 99 % 1016,8 hPa 0,0 l/m 0 min 0 min 9 W/m 12,9 km/h (3 Bft) 95,74 %
18.08.2023 06:58 17,4 C 16,7 C 13,3 C 99 % 1016,8 hPa 0,0 l/m 0 min 0 min 9 W/m 6,4 km/h (2 Bft) 97,87 %
18.08.2023 07:00 17,4 C 16,7 C 13,9 C 99 % 1016,8 hPa 0,0 l/m 0 min 0 min 10 W/m 6,4 km/h (2 Bft) 97,87 %
18.08.2023 07:02 17,4 C 16,7 C 13,9 C 99 % 1016,8 hPa 0,0 l/m 0 min 0 min 12 W/m 6,4 km/h (2 Bft) 97,87 %
18.08.2023 07:04 17,4 C 16,7 C 13,9 C 99 % 1016,8 hPa 0,0 l/m 0 min 0 min 12 W/m 3,2 km/h (1 Bft) 95,83 %
18.08.2023 07:06 17,4 C 16,7 C 13,9 C 99 % 1016,7 hPa 0,0 l/m 0 min 0 min 12 W/m 9,7 km/h (2 Bft) 96,67 %
18.08.2023 07:08 17,4 C 16,7 C 13,9 C 99 % 1016,6 hPa 0,0 l/m 0 min 0 min 14 W/m 0,0 km/h (0 Bft) 97,14 %
18.08.2023 07:10 17,5 C 16,7 C 13,9 C 99 % 1016,6 hPa 0,0 l/m 0 min 0 min 14 W/m 6,4 km/h (2 Bft) 95,74 %
18.08.2023 07:12 17,5 C 16,7 C 13,9 C 99 % 1016,7 hPa 0,0 l/m 0 min 0 min 16 W/m 6,4 km/h (2 Bft) 97,87 %
18.08.2023 07:14 17,5 C 16,7 C 13,9 C 99 % 1016,6 hPa 0,0 l/m 0 min 0 min 18 W/m 3,2 km/h (1 Bft) 95,74 %
18.08.2023 07:16 17,5 C 16,7 C 13,9 C 99 % 1016,6 hPa 0,0 l/m 0 min 0 min 19 W/m 0,0 km/h (0 Bft) 97,87 %
18.08.2023 07:18 17,5 C 16,7 C 13,9 C 99 % 1016,6 hPa 0,0 l/m 0 min 0 min 19 W/m 6,4 km/h (2 Bft) 93,48 %
18.08.2023 07:20 17,6 C 16,7 C 13,9 C 99 % 1016,6 hPa 0,0 l/m 0 min 0 min 20 W/m 3,2 km/h (1 Bft) 97,87 %
18.08.2023 07:22 17,6 C 16,7 C 13,9 C 99 % 1016,7 hPa 0,0 l/m 0 min 0 min 21 W/m 6,4 km/h (2 Bft) 95,74 %
18.08.2023 07:24 17,6 C 16,7 C 13,9 C 99 % 1016,7 hPa 0,0 l/m 0 min 0 min 22 W/m 3,2 km/h (1 Bft) 97,87 %
18.08.2023 07:26 17,6 C 16,7 C 13,9 C 99 % 1016,6 hPa 0,0 l/m 0 min 0 min 23 W/m 6,4 km/h (2 Bft) 93,62 %
18.08.2023 07:28 17,6 C 16,7 C 13,9 C 99 % 1016,8 hPa 0,0 l/m 0 min 0 min 24 W/m 6,4 km/h (2 Bft) 95,74 %
18.08.2023 07:30 17,6 C 16,7 C 13,9 C 99 % 1016,7 hPa 0,0 l/m 0 min 0 min 25 W/m 3,2 km/h (1 Bft) 95,65 %
18.08.2023 07:32 17,6 C 16,7 C 13,9 C 99 % 1016,7 hPa 0,0 l/m 0 min 0 min 25 W/m 6,4 km/h (2 Bft) 95,74 %
18.08.2023 07:34 17,6 C 16,7 C 13,9 C 99 % 1016,8 hPa 0,0 l/m 0 min 0 min 26 W/m 6,4 km/h (2 Bft) 95,74 %
18.08.2023 07:36 17,6 C 17,2 C 13,9 C 99 % 1016,8 hPa 0,0 l/m 0 min 0 min 28 W/m 6,4 km/h (2 Bft) 95,74 %
18.08.2023 07:38 17,6 C 17,2 C 13,9 C 99 % 1016,8 hPa 0,0 l/m 0 min 0 min 30 W/m 6,4 km/h (2 Bft) 95,74 %
18.08.2023 07:40 17,6 C 17,2 C 13,9 C 99 % 1016,8 hPa 0,0 l/m 0 min 0 min 29 W/m 3,2 km/h (1 Bft) 95,74 %
18.08.2023 07:42 17,6 C 17,2 C 13,9 C 99 % 1016,8 hPa 0,0 l/m 0 min 0 min 30 W/m 3,2 km/h (1 Bft) 97,83 %
18.08.2023 07:44 17,6 C 17,2 C 13,9 C 99 % 1016,8 hPa 0,0 l/m 0 min 0 min 33 W/m 3,2 km/h (1 Bft) 97,87 %
18.08.2023 07:46 17,6 C 17,2 C 13,9 C 99 % 1016,8 hPa 0,0 l/m 0 min 0 min 33 W/m 6,4 km/h (2 Bft) 97,87 %
18.08.2023 07:48 17,6 C 17,2 C 13,9 C 99 % 1016,9 hPa 0,0 l/m 0 min 0 min 33 W/m 6,4 km/h (2 Bft) 95,74 %
18.08.2023 07:50 17,6 C 17,2 C 13,9 C 99 % 1016,8 hPa 0,0 l/m 0 min 0 min 33 W/m 6,4 km/h (2 Bft) 97,87 %
18.08.2023 07:52 17,6 C 17,2 C 13,9 C 99 % 1016,7 hPa 0,0 l/m 0 min 0 min 36 W/m 3,2 km/h (1 Bft) 97,87 %
18.08.2023 07:54 17,6 C 17,2 C 13,9 C 99 % 1016,8 hPa 0,0 l/m 0 min 0 min 36 W/m 3,2 km/h (1 Bft) 97,87 %
18.08.2023 07:56 17,6 C 17,2 C 13,9 C 99 % 1016,8 hPa 0,0 l/m 0 min 0 min 37 W/m 3,2 km/h (1 Bft) 97,83 %
18.08.2023 07:58 17,7 C 17,2 C 13,9 C 99 % 1016,8 hPa 0,0 l/m 0 min 0 min 38 W/m 3,2 km/h (1 Bft) 95,74 %
18.08.2023 08:00 17,7 C 17,2 C 13,9 C 99 % 1016,8 hPa 0,0 l/m 0 min 0 min 41 W/m 3,2 km/h (1 Bft) 97,87 %
18.08.2023 08:02 17,7 C 17,2 C 13,9 C 99 % 1016,8 hPa 0,0 l/m 0 min 0 min 44 W/m 6,4 km/h (2 Bft) 97,87 %
18.08.2023 08:04 17,7 C 17,2 C 13,9 C 99 % 1016,8 hPa 0,0 l/m 0 min 0 min 45 W/m 6,4 km/h (2 Bft) 97,92 %
18.08.2023 08:06 17,7 C 17,2 C 13,9 C 99 % 1016,8 hPa 0,0 l/m 0 min 0 min 47 W/m 0,0 km/h (0 Bft) 96,61 %
18.08.2023 08:08 17,7 C 17,2 C 13,9 C 99 % 1016,8 hPa 0,0 l/m 0 min 0 min 48 W/m 12,9 km/h (3 Bft) 94,29 %
18.08.2023 08:10 17,7 C 17,2 C 13,9 C 99 % 1016,8 hPa 0,0 l/m 0 min 0 min 51 W/m 3,2 km/h (1 Bft) 97,87 %
18.08.2023 08:12 17,7 C 17,2 C 14,4 C 99 % 1016,8 hPa 0,0 l/m 0 min 0 min 47 W/m 3,2 km/h (1 Bft) 97,87 %
18.08.2023 08:14 17,7 C 17,2 C 14,4 C 99 % 1016,8 hPa 0,0 l/m 0 min 0 min 43 W/m 6,4 km/h (2 Bft) 100,00 %
18.08.2023 08:16 17,7 C 17,2 C 14,4 C 99 % 1016,8 hPa 0,0 l/m 0 min 0 min 38 W/m 3,2 km/h (1 Bft) 97,87 %
18.08.2023 08:18 17,7 C 17,2 C 14,4 C 99 % 1016,9 hPa 0,0 l/m 0 min 0 min 40 W/m 6,4 km/h (2 Bft) 100,00 %
18.08.2023 08:20 17,8 C 17,2 C 14,4 C 99 % 1016,9 hPa 0,0 l/m 0 min 0 min 54 W/m 6,4 km/h (2 Bft) 95,74 %
18.08.2023 08:22 17,8 C 17,8 C 14,4 C 99 % 1016,9 hPa 0,0 l/m 0 min 0 min 58 W/m 9,7 km/h (2 Bft) 97,83 %
18.08.2023 08:24 17,8 C 17,2 C 14,4 C 99 % 1016,9 hPa 0,0 l/m 0 min 0 min 59 W/m 9,7 km/h (2 Bft) 95,74 %
18.08.2023 08:26 17,8 C 17,8 C 14,4 C 99 % 1016,8 hPa 0,0 l/m 0 min 0 min 57 W/m 6,4 km/h (2 Bft) 95,74 %
18.08.2023 08:28 17,8 C 17,8 C 14,4 C 99 % 1016,8 hPa 0,0 l/m 0 min 0 min 63 W/m 9,7 km/h (2 Bft) 97,87 %
18.08.2023 08:30 17,8 C 17,8 C 14,4 C 99 % 1016,8 hPa 0,0 l/m 0 min 0 min 64 W/m 9,7 km/h (2 Bft) 97,87 %
18.08.2023 08:32 17,8 C 17,8 C 14,4 C 99 % 1016,8 hPa 0,0 l/m 0 min 0 min 64 W/m 0,0 km/h (0 Bft) 97,87 %
18.08.2023 08:34 17,8 C 17,8 C 14,4 C 99 % 1016,8 hPa 0,0 l/m 0 min 0 min 63 W/m 3,2 km/h (1 Bft) 97,83 %
18.08.2023 08:36 17,8 C 17,8 C 14,4 C 99 % 1016,8 hPa 0,0 l/m 0 min 0 min 63 W/m 6,4 km/h (2 Bft) 97,87 %
18.08.2023 08:38 17,8 C 17,8 C 14,4 C 99 % 1016,8 hPa 0,0 l/m 0 min 0 min 67 W/m 6,4 km/h (2 Bft) 97,87 %
18.08.2023 08:40 17,8 C 17,8 C 14,4 C 99 % 1016,9 hPa 0,0 l/m 0 min 0 min 73 W/m 12,9 km/h (3 Bft) 97,87 %
18.08.2023 08:42 17,8 C 17,8 C 14,4 C 99 % 1016,9 hPa 0,0 l/m 0 min 0 min 73 W/m 6,4 km/h (2 Bft) 97,87 %
18.08.2023 08:44 17,8 C 17,8 C 14,4 C 99 % 1016,9 hPa 0,0 l/m 0 min 0 min 79 W/m 6,4 km/h (2 Bft) 97,87 %
18.08.2023 08:46 17,8 C 17,8 C 14,4 C 99 % 1016,9 hPa 0,0 l/m 0 min 0 min 80 W/m 6,4 km/h (2 Bft) 97,87 %
18.08.2023 08:48 17,8 C 17,8 C 14,4 C 99 % 1016,8 hPa 0,0 l/m 0 min 0 min 77 W/m 9,7 km/h (2 Bft) 97,83 %
18.08.2023 08:50 17,9 C 17,8 C 14,4 C 99 % 1016,9 hPa 0,0 l/m 0 min 0 min 73 W/m 6,4 km/h (2 Bft) 97,87 %
18.08.2023 08:52 17,8 C 17,8 C 14,4 C 99 % 1016,8 hPa 0,0 l/m 0 min 0 min 72 W/m 6,4 km/h (2 Bft) 97,87 %
18.08.2023 08:54 17,8 C 17,8 C 14,4 C 99 % 1016,8 hPa 0,0 l/m 0 min 0 min 86 W/m 0,0 km/h (0 Bft) 100,00 %
18.08.2023 08:56 17,9 C 17,8 C 14,4 C 99 % 1016,7 hPa 0,0 l/m 0 min 0 min 91 W/m 6,4 km/h (2 Bft) 100,00 %
18.08.2023 08:58 17,9 C 17,8 C 14,4 C 99 % 1016,7 hPa 0,0 l/m 0 min 0 min 80 W/m 6,4 km/h (2 Bft) 100,00 %
18.08.2023 09:00 17,9 C 17,8 C 14,4 C 99 % 1016,7 hPa 0,0 l/m 0 min 0 min 89 W/m 6,4 km/h (2 Bft) 100,00 %
18.08.2023 09:02 17,9 C 17,8 C 14,4 C 99 % 1016,7 hPa 0,0 l/m 0 min 0 min 87 W/m 6,4 km/h (2 Bft) 100,00 %
18.08.2023 09:04 17,9 C 17,8 C 14,4 C 99 % 1016,7 hPa 0,0 l/m 0 min 0 min 88 W/m 6,4 km/h (2 Bft) 100,00 %
18.08.2023 09:06 17,9 C 17,8 C 14,4 C 99 % 1016,8 hPa 0,0 l/m 0 min 0 min 102 W/m 9,7 km/h (2 Bft) 100,00 %
18.08.2023 09:08 17,9 C 17,8 C 14,4 C 99 % 1016,8 hPa 0,0 l/m 0 min 0 min 94 W/m 9,7 km/h (2 Bft) 97,87 %
18.08.2023 09:10 17,9 C 17,8 C 14,4 C 99 % 1016,8 hPa 0,0 l/m 0 min 0 min 103 W/m 6,4 km/h (2 Bft) 100,00 %
18.08.2023 09:12 17,9 C 17,8 C 14,4 C 99 % 1016,8 hPa 0,0 l/m 0 min 0 min 110 W/m 6,4 km/h (2 Bft) 100,00 %
18.08.2023 09:14 17,9 C 18,3 C 14,4 C 99 % 1016,8 hPa 0,0 l/m 0 min 0 min 109 W/m 6,4 km/h (2 Bft) 100,00 %
18.08.2023 09:16 17,9 C 18,3 C 14,4 C 99 % 1016,8 hPa 0,0 l/m 0 min 0 min 105 W/m 6,4 km/h (2 Bft) 100,00 %
18.08.2023 09:18 18,0 C 18,3 C 14,4 C 99 % 1016,8 hPa 0,0 l/m 0 min 0 min 99 W/m 6,4 km/h (2 Bft) 100,00 %
18.08.2023 09:20 18,0 C 18,3 C 14,4 C 99 % 1016,8 hPa 0,0 l/m 0 min 0 min 105 W/m 9,7 km/h (2 Bft) 97,87 %
18.08.2023 09:22 18,0 C 18,3 C 14,4 C 99 % 1016,8 hPa 0,0 l/m 0 min 0 min 109 W/m 9,7 km/h (2 Bft) 100,00 %
18.08.2023 09:24 18,0 C 18,3 C 15,0 C 99 % 1016,8 hPa 0,0 l/m 0 min 0 min 104 W/m 9,7 km/h (2 Bft) 100,00 %
18.08.2023 09:26 18,1 C 18,3 C 15,0 C 99 % 1016,9 hPa 0,0 l/m 0 min 0 min 107 W/m 6,4 km/h (2 Bft) 100,00 %
18.08.2023 09:28 18,1 C 18,3 C 15,0 C 99 % 1016,8 hPa 0,0 l/m 0 min 0 min 119 W/m 6,4 km/h (2 Bft) 100,00 %
18.08.2023 09:30 18,1 C 18,3 C 15,0 C 99 % 1016,9 hPa 0,0 l/m 0 min 0 min 117 W/m 6,4 km/h (2 Bft) 97,87 %
18.08.2023 09:32 18,2 C 18,3 C 15,0 C 99 % 1016,9 hPa 0,0 l/m 0 min 0 min 124 W/m 6,4 km/h (2 Bft) 100,00 %
18.08.2023 09:34 18,2 C 18,3 C 15,0 C 99 % 1016,9 hPa 0,0 l/m 0 min 0 min 123 W/m 9,7 km/h (2 Bft) 97,87 %
18.08.2023 09:36 18,2 C 18,3 C 15,0 C 99 % 1016,9 hPa 0,0 l/m 0 min 0 min 121 W/m 9,7 km/h (2 Bft) 95,74 %
18.08.2023 09:38 18,1 C 18,3 C 15,0 C 99 % 1016,9 hPa 0,0 l/m 0 min 0 min 113 W/m 9,7 km/h (2 Bft) 97,87 %
18.08.2023 09:40 18,2 C 18,3 C 15,0 C 99 % 1016,9 hPa 0,0 l/m 0 min 0 min 108 W/m 3,2 km/h (1 Bft) 95,65 %
18.08.2023 09:42 18,1 C 18,3 C 15,0 C 99 % 1016,9 hPa 0,0 l/m 0 min 0 min 109 W/m 0,0 km/h (0 Bft) 97,87 %
18.08.2023 09:44 18,2 C 18,3 C 15,0 C 99 % 1016,8 hPa 0,0 l/m 0 min 0 min 118 W/m 3,2 km/h (1 Bft) 97,87 %
18.08.2023 09:46 18,2 C 18,3 C 15,0 C 99 % 1016,8 hPa 0,0 l/m 0 min 0 min 127 W/m 9,7 km/h (2 Bft) 97,87 %
18.08.2023 09:48 18,2 C 18,3 C 15,0 C 99 % 1016,9 hPa 0,0 l/m 0 min 0 min 134 W/m 9,7 km/h (2 Bft) 97,87 %
18.08.2023 09:50 18,2 C 18,3 C 15,0 C 99 % 1016,8 hPa 0,0 l/m 0 min 0 min 145 W/m 6,4 km/h (2 Bft) 97,87 %
18.08.2023 09:52 18,2 C 18,3 C 15,0 C 99 % 1016,8 hPa 0,0 l/m 0 min 0 min 138 W/m 3,2 km/h (1 Bft) 97,83 %
18.08.2023 09:54 18,2 C 18,9 C 15,0 C 99 % 1016,8 hPa 0,0 l/m 0 min 0 min 147 W/m 3,2 km/h (1 Bft) 97,87 %
18.08.2023 09:56 18,3 C 18,9 C 15,0 C 99 % 1016,8 hPa 0,0 l/m 0 min 0 min 154 W/m 6,4 km/h (2 Bft) 95,74 %
18.08.2023 09:58 18,3 C 18,9 C 15,0 C 99 % 1016,8 hPa 0,0 l/m 0 min 0 min 147 W/m 6,4 km/h (2 Bft) 97,87 %
18.08.2023 10:00 18,3 C 18,9 C 15,0 C 99 % 1016,8 hPa 0,0 l/m 0 min 0 min 148 W/m 6,4 km/h (2 Bft) 95,74 %
18.08.2023 10:02 18,4 C 18,9 C 15,6 C 99 % 1016,8 hPa 0,0 l/m 0 min 0 min 153 W/m 3,2 km/h (1 Bft) 97,87 %
18.08.2023 10:04 18,4 C 18,9 C 15,6 C 99 % 1016,9 hPa 0,0 l/m 0 min 0 min 151 W/m 6,4 km/h (2 Bft) 97,62 %
18.08.2023 10:06 18,4 C 18,9 C 15,6 C 99 % 1017,0 hPa 0,0 l/m 0 min 0 min 154 W/m 6,4 km/h (2 Bft) 96,55 %
18.08.2023 10:08 18,5 C 18,9 C 15,6 C 99 % 1016,9 hPa 0,0 l/m 0 min 0 min 179 W/m 3,2 km/h (1 Bft) 94,29 %
18.08.2023 10:10 18,6 C 19,4 C 15,6 C 99 % 1016,9 hPa 0,0 l/m 0 min 0 min 198 W/m 6,4 km/h (2 Bft) 95,74 %
18.08.2023 10:12 18,6 C 19,4 C 15,6 C 99 % 1016,9 hPa 0,0 l/m 0 min 0 min 185 W/m 6,4 km/h (2 Bft) 95,74 %
18.08.2023 10:14 18,7 C 19,4 C 15,6 C 99 % 1016,9 hPa 0,0 l/m 0 min 0 min 184 W/m 3,2 km/h (1 Bft) 97,87 %
18.08.2023 10:16 18,7 C 19,4 C 15,6 C 99 % 1017,0 hPa 0,0 l/m 0 min 0 min 186 W/m 6,4 km/h (2 Bft) 95,74 %
18.08.2023 10:18 18,7 C 20,0 C 16,1 C 99 % 1016,9 hPa 0,0 l/m 0 min 0 min 209 W/m 3,2 km/h (1 Bft) 95,74 %
18.08.2023 10:20 18,8 C 20,0 C 16,1 C 99 % 1016,9 hPa 0,0 l/m 0 min 0 min 206 W/m 3,2 km/h (1 Bft) 95,65 %
18.08.2023 10:22 18,8 C 20,0 C 16,1 C 99 % 1017,0 hPa 0,0 l/m 0 min 0 min 195 W/m 6,4 km/h (2 Bft) 93,62 %
18.08.2023 10:24 18,9 C 20,0 C 16,1 C 99 % 1016,9 hPa 0,0 l/m 0 min 0 min 209 W/m 9,7 km/h (2 Bft) 95,74 %
18.08.2023 10:26 18,9 C 20,0 C 16,1 C 99 % 1017,0 hPa 0,0 l/m 0 min 0 min 200 W/m 6,4 km/h (2 Bft) 95,74 %
18.08.2023 10:28 19,0 C 20,0 C 16,1 C 99 % 1017,0 hPa 0,0 l/m 0 min 0 min 188 W/m 6,4 km/h (2 Bft) 95,74 %
18.08.2023 10:30 19,0 C 20,0 C 16,1 C 98 % 1017,0 hPa 0,0 l/m 0 min 0 min 181 W/m 9,7 km/h (2 Bft) 95,74 %
18.08.2023 10:32 19,0 C 19,4 C 16,1 C 98 % 1017,0 hPa 0,0 l/m 0 min 0 min 176 W/m 12,9 km/h (3 Bft) 95,65 %
18.08.2023 10:34 19,0 C 20,0 C 16,1 C 98 % 1017,0 hPa 0,0 l/m 0 min 0 min 180 W/m 6,4 km/h (2 Bft) 95,74 %
18.08.2023 10:36 19,1 C 20,0 C 16,1 C 98 % 1017,1 hPa 0,0 l/m 0 min 0 min 190 W/m 9,7 km/h (2 Bft) 95,74 %
18.08.2023 10:38 19,1 C 20,0 C 16,1 C 98 % 1017,0 hPa 0,0 l/m 0 min 0 min 204 W/m 9,7 km/h (2 Bft) 95,74 %
18.08.2023 10:40 19,1 C 20,0 C 16,1 C 98 % 1017,0 hPa 0,0 l/m 0 min 0 min 213 W/m 9,7 km/h (2 Bft) 93,62 %
18.08.2023 10:42 19,1 C 20,0 C 16,1 C 98 % 1017,0 hPa 0,0 l/m 0 min 0 min 214 W/m 6,4 km/h (2 Bft) 93,62 %
18.08.2023 10:44 19,2 C 20,0 C 16,1 C 98 % 1017,0 hPa 0,0 l/m 0 min 0 min 218 W/m 3,2 km/h (1 Bft) 93,48 %
18.08.2023 10:46 19,2 C 20,0 C 16,1 C 98 % 1017,1 hPa 0,0 l/m 0 min 0 min 215 W/m 6,4 km/h (2 Bft) 95,74 %
18.08.2023 10:48 19,3 C 20,6 C 16,1 C 98 % 1017,1 hPa 0,0 l/m 0 min 0 min 236 W/m 3,2 km/h (1 Bft) 95,74 %
18.08.2023 10:50 19,3 C 20,0 C 16,1 C 98 % 1017,0 hPa 0,0 l/m 0 min 0 min 217 W/m 6,4 km/h (2 Bft) 95,74 %
18.08.2023 10:52 19,3 C 20,6 C 16,1 C 98 % 1017,0 hPa 0,0 l/m 0 min 0 min 199 W/m 3,2 km/h (1 Bft) 95,74 %
18.08.2023 10:54 19,4 C 20,6 C 16,1 C 98 % 1017,0 hPa 0,0 l/m 0 min 0 min 204 W/m 6,4 km/h (2 Bft) 97,87 %
18.08.2023 10:56 19,4 C 20,6 C 16,1 C 98 % 1017,0 hPa 0,0 l/m 0 min 0 min 219 W/m 6,4 km/h (2 Bft) 97,87 %
18.08.2023 10:58 19,4 C 20,6 C 16,7 C 97 % 1017,0 hPa 0,0 l/m 0 min 0 min 217 W/m 3,2 km/h (1 Bft) 97,83 %
18.08.2023 11:00 19,5 C 20,6 C 16,7 C 97 % 1016,9 hPa 0,0 l/m 0 min 0 min 233 W/m 6,4 km/h (2 Bft) 97,87 %
18.08.2023 11:02 19,6 C 20,6 C 16,7 C 97 % 1016,9 hPa 0,0 l/m 0 min 0 min 251 W/m 6,4 km/h (2 Bft) 97,87 %
18.08.2023 11:04 19,6 C 20,6 C 16,7 C 97 % 1017,0 hPa 0,0 l/m 0 min 0 min 258 W/m 6,4 km/h (2 Bft) 98,04 %
18.08.2023 11:06 19,7 C 20,6 C 16,7 C 97 % 1016,9 hPa 0,0 l/m 0 min 0 min 252 W/m 6,4 km/h (2 Bft) 97,87 %
18.08.2023 11:08 19,7 C 20,6 C 16,7 C 97 % 1016,9 hPa 0,0 l/m 0 min 0 min 236 W/m 6,4 km/h (2 Bft) 97,87 %
18.08.2023 11:10 19,7 C 20,6 C 16,7 C 97 % 1016,9 hPa 0,0 l/m 0 min 0 min 244 W/m 3,2 km/h (1 Bft) 95,65 %
18.08.2023 11:12 19,8 C 20,6 C 16,7 C 97 % 1016,9 hPa 0,0 l/m 0 min 0 min 249 W/m 3,2 km/h (1 Bft) 95,74 %
18.08.2023 11:14 19,9 C 21,1 C 17,2 C 96 % 1016,9 hPa 0,0 l/m 0 min 0 min 253 W/m 6,4 km/h (2 Bft) 100,00 %
18.08.2023 11:16 19,9 C 20,6 C 17,2 C 96 % 1016,8 hPa 0,0 l/m 0 min 0 min 245 W/m 3,2 km/h (1 Bft) 97,87 %
18.08.2023 11:18 19,9 C 21,1 C 17,2 C 96 % 1016,8 hPa 0,0 l/m 0 min 0 min 237 W/m 3,2 km/h (1 Bft) 100,00 %
18.08.2023 11:20 20,1 C 21,1 C 17,2 C 96 % 1016,9 hPa 0,0 l/m 0 min 0 min 226 W/m 3,2 km/h (1 Bft) 100,00 %
18.08.2023 11:22 20,1 C 21,1 C 17,2 C 96 % 1016,9 hPa 0,0 l/m 0 min 0 min 231 W/m 3,2 km/h (1 Bft) 100,00 %
18.08.2023 11:24 20,1 C 21,1 C 17,2 C 96 % 1016,9 hPa 0,0 l/m 0 min 0 min 252 W/m 6,4 km/h (2 Bft) 100,00 %
18.08.2023 11:26 20,2 C 21,1 C 17,2 C 96 % 1016,8 hPa 0,0 l/m 0 min 0 min 278 W/m 9,7 km/h (2 Bft) 100,00 %
18.08.2023 11:28 20,2 C 21,7 C 17,2 C 95 % 1016,9 hPa 0,0 l/m 0 min 0 min 277 W/m 9,7 km/h (2 Bft) 100,00 %
18.08.2023 11:30 20,3 C 21,7 C 17,2 C 95 % 1016,8 hPa 0,0 l/m 0 min 0 min 284 W/m 6,4 km/h (2 Bft) 100,00 %
18.08.2023 11:32 20,4 C 21,7 C 17,2 C 95 % 1016,8 hPa 0,0 l/m 0 min 0 min 280 W/m 6,4 km/h (2 Bft) 100,00 %
18.08.2023 11:34 20,4 C 21,7 C 17,2 C 95 % 1016,8 hPa 0,0 l/m 0 min 0 min 269 W/m 3,2 km/h (1 Bft) 100,00 %
18.08.2023 11:36 20,5 C 21,7 C 17,2 C 95 % 1016,8 hPa 0,0 l/m 0 min 0 min 265 W/m 3,2 km/h (1 Bft) 100,00 %
18.08.2023 11:38 20,6 C 21,7 C 17,8 C 95 % 1016,8 hPa 0,0 l/m 0 min 0 min 304 W/m 3,2 km/h (1 Bft) 100,00 %
18.08.2023 11:40 20,6 C 22,2 C 17,8 C 95 % 1016,8 hPa 0,0 l/m 2 min 0 min 361 W/m 3,2 km/h (1 Bft) 100,00 %
18.08.2023 11:42 20,7 C 22,2 C 17,8 C 94 % 1016,8 hPa 0,0 l/m 2 min 0 min 435 W/m 6,4 km/h (2 Bft) 100,00 %
18.08.2023 11:44 20,7 C 22,2 C 17,8 C 94 % 1016,8 hPa 0,0 l/m 0 min 0 min 294 W/m 3,2 km/h (1 Bft) 100,00 %
18.08.2023 11:46 20,8 C 22,2 C 17,8 C 94 % 1016,8 hPa 0,0 l/m 0 min 0 min 289 W/m 3,2 km/h (1 Bft) 100,00 %
18.08.2023 11:48 20,8 C 22,2 C 17,8 C 94 % 1016,7 hPa 0,0 l/m 0 min 0 min 265 W/m 9,7 km/h (2 Bft) 100,00 %
18.08.2023 11:50 20,9 C 22,2 C 17,8 C 94 % 1016,8 hPa 0,0 l/m 0 min 0 min 270 W/m 9,7 km/h (2 Bft) 100,00 %
18.08.2023 11:52 20,9 C 22,2 C 17,8 C 93 % 1016,8 hPa 0,0 l/m 0 min 0 min 309 W/m 6,4 km/h (2 Bft) 100,00 %
18.08.2023 11:54 20,9 C 22,2 C 17,8 C 93 % 1016,8 hPa 0,0 l/m 2 min 0 min 356 W/m 3,2 km/h (1 Bft) 100,00 %
18.08.2023 11:56 21,1 C 22,8 C 17,8 C 93 % 1016,7 hPa 0,0 l/m 2 min 0 min 412 W/m 6,4 km/h (2 Bft) 97,87 %
18.08.2023 11:58 21,1 C 22,2 C 18,3 C 93 % 1016,7 hPa 0,0 l/m 0 min 0 min 327 W/m 3,2 km/h (1 Bft) 100,00 %
18.08.2023 12:00 21,1 C 22,8 C 17,8 C 93 % 1016,7 hPa 0,0 l/m 0 min 0 min 229 W/m 6,4 km/h (2 Bft) 100,00 %
18.08.2023 12:02 21,2 C 23,3 C 18,3 C 93 % 1016,6 hPa 0,0 l/m 2 min 0 min 480 W/m 3,2 km/h (1 Bft) 97,87 %
18.08.2023 12:04 21,3 C 24,4 C 18,9 C 93 % 1016,6 hPa 0,0 l/m 2 min 0 min 584 W/m 6,4 km/h (2 Bft) 100,00 %
18.08.2023 12:08 21,4 C 24,4 C 18,9 C 92 % 1016,7 hPa 0,0 l/m 4 min 0 min 461 W/m 6,4 km/h (2 Bft) 100,00 %
18.08.2023 12:10 21,6 C 26,1 C 19,4 C 92 % 1016,6 hPa 0,0 l/m 2 min 0 min 557 W/m 3,2 km/h (1 Bft) 97,87 %
18.08.2023 12:12 21,7 C 27,2 C 20,0 C 92 % 1016,7 hPa 0,0 l/m 2 min 0 min 699 W/m 6,4 km/h (2 Bft) 97,87 %
18.08.2023 12:14 21,8 C 28,3 C 20,0 C 92 % 1016,6 hPa 0,0 l/m 2 min 0 min 745 W/m 3,2 km/h (1 Bft) 97,87 %
18.08.2023 12:16 22,0 C 29,4 C 20,6 C 92 % 1016,6 hPa 0,0 l/m 2 min 0 min 782 W/m 6,4 km/h (2 Bft) 95,74 %
18.08.2023 12:18 22,1 C 30,0 C 21,1 C 91 % 1016,5 hPa 0,0 l/m 2 min 0 min 767 W/m 3,2 km/h (1 Bft) 93,48 %
18.08.2023 12:20 22,3 C 30,6 C 21,1 C 91 % 1016,5 hPa 0,0 l/m 2 min 0 min 775 W/m 3,2 km/h (1 Bft) 95,74 %
18.08.2023 12:22 22,4 C 31,1 C 20,6 C 91 % 1016,5 hPa 0,0 l/m 2 min 0 min 775 W/m 6,4 km/h (2 Bft) 97,87 %
18.08.2023 12:24 22,6 C 31,1 C 20,6 C 90 % 1016,5 hPa 0,0 l/m 2 min 0 min 788 W/m 6,4 km/h (2 Bft) 93,62 %
18.08.2023 12:26 22,8 C 31,7 C 20,6 C 90 % 1016,5 hPa 0,0 l/m 2 min 0 min 812 W/m 0,0 km/h (0 Bft) 95,74 %
18.08.2023 12:28 23,0 C 31,7 C 21,1 C 89 % 1016,5 hPa 0,0 l/m 2 min 0 min 824 W/m 3,2 km/h (1 Bft) 95,74 %
18.08.2023 12:30 23,1 C 30,6 C 21,1 C 89 % 1016,4 hPa 0,0 l/m 2 min 0 min 769 W/m 6,4 km/h (2 Bft) 95,65 %
18.08.2023 12:32 23,2 C 31,1 C 21,1 C 88 % 1016,4 hPa 0,0 l/m 2 min 0 min 778 W/m 6,4 km/h (2 Bft) 95,74 %
18.08.2023 12:34 23,4 C 31,1 C 20,6 C 88 % 1016,4 hPa 0,0 l/m 2 min 0 min 811 W/m 6,4 km/h (2 Bft) 97,87 %
18.08.2023 12:36 23,5 C 29,4 C 20,6 C 87 % 1016,4 hPa 0,0 l/m 2 min 0 min 771 W/m 3,2 km/h (1 Bft) 93,62 %
18.08.2023 12:38 23,6 C 28,3 C 20,6 C 87 % 1016,4 hPa 0,0 l/m 2 min 0 min 804 W/m 6,4 km/h (2 Bft) 95,74 %
18.08.2023 12:40 23,6 C 28,3 C 20,0 C 86 % 1016,4 hPa 0,0 l/m 2 min 0 min 806 W/m 6,4 km/h (2 Bft) 93,62 %
18.08.2023 12:42 23,8 C 28,3 C 20,0 C 87 % 1016,4 hPa 0,0 l/m 2 min 0 min 829 W/m 9,7 km/h (2 Bft) 95,74 %
18.08.2023 12:44 23,8 C 26,7 C 20,0 C 86 % 1016,4 hPa 0,0 l/m 2 min 0 min 827 W/m 9,7 km/h (2 Bft) 95,65 %
18.08.2023 12:46 23,9 C 26,1 C 20,0 C 86 % 1016,4 hPa 0,0 l/m 2 min 0 min 834 W/m 6,4 km/h (2 Bft) 95,74 %
18.08.2023 12:48 23,9 C 26,1 C 20,0 C 85 % 1016,4 hPa 0,0 l/m 2 min 0 min 836 W/m 6,4 km/h (2 Bft) 95,74 %
18.08.2023 12:50 24,0 C 25,6 C 20,0 C 85 % 1016,4 hPa 0,0 l/m 2 min 0 min 837 W/m 6,4 km/h (2 Bft) 95,74 %
18.08.2023 12:52 24,1 C 25,0 C 20,0 C 85 % 1016,4 hPa 0,0 l/m 2 min 0 min 813 W/m 6,4 km/h (2 Bft) 95,74 %
18.08.2023 12:54 24,1 C 25,0 C 20,0 C 85 % 1016,4 hPa 0,0 l/m 2 min 0 min 817 W/m 6,4 km/h (2 Bft) 93,62 %
18.08.2023 12:56 24,1 C 25,0 C 20,0 C 85 % 1016,3 hPa 0,0 l/m 2 min 0 min 828 W/m 9,7 km/h (2 Bft) 100,00 %
18.08.2023 12:58 24,2 C 25,0 C 20,0 C 85 % 1016,3 hPa 0,0 l/m 2 min 0 min 805 W/m 6,4 km/h (2 Bft) 100,00 %
18.08.2023 13:00 24,2 C 25,0 C 20,0 C 85 % 1016,3 hPa 0,0 l/m 2 min 0 min 788 W/m 12,9 km/h (3 Bft) 100,00 %
18.08.2023 13:02 24,2 C 24,4 C 20,0 C 84 % 1016,3 hPa 0,0 l/m 2 min 0 min 754 W/m 9,7 km/h (2 Bft) 97,87 %
18.08.2023 13:04 24,3 C 25,0 C 20,0 C 85 % 1016,2 hPa 0,0 l/m 2 min 0 min 793 W/m 6,4 km/h (2 Bft) 100,00 %
18.08.2023 13:06 24,3 C 25,0 C 20,0 C 84 % 1016,2 hPa 0,0 l/m 2 min 0 min 799 W/m 6,4 km/h (2 Bft) 100,00 %
18.08.2023 13:08 24,3 C 25,0 C 20,0 C 84 % 1016,2 hPa 0,0 l/m 2 min 0 min 648 W/m 3,2 km/h (1 Bft) 100,00 %
18.08.2023 13:10 24,4 C 25,0 C 20,0 C 83 % 1016,2 hPa 0,0 l/m 2 min 0 min 662 W/m 3,2 km/h (1 Bft) 97,87 %
18.08.2023 13:12 24,4 C 25,6 C 20,0 C 83 % 1016,2 hPa 0,0 l/m 2 min 0 min 472 W/m 6,4 km/h (2 Bft) 100,00 %
18.08.2023 13:14 24,4 C 25,6 C 20,6 C 84 % 1016,2 hPa 0,0 l/m 2 min 0 min 484 W/m 3,2 km/h (1 Bft) 97,87 %
18.08.2023 13:16 24,5 C 25,0 C 20,6 C 84 % 1016,1 hPa 0,0 l/m 2 min 0 min 434 W/m 6,4 km/h (2 Bft) 97,87 %
18.08.2023 13:18 24,4 C 25,0 C 20,0 C 83 % 1016,1 hPa 0,0 l/m 0 min 0 min 378 W/m 3,2 km/h (1 Bft) 100,00 %
18.08.2023 13:20 24,4 C 25,6 C 20,6 C 84 % 1016,0 hPa 0,0 l/m 2 min 0 min 550 W/m 9,7 km/h (2 Bft) 100,00 %
18.08.2023 13:22 24,5 C 25,6 C 20,6 C 85 % 1015,9 hPa 0,0 l/m 2 min 0 min 636 W/m 6,4 km/h (2 Bft) 100,00 %
18.08.2023 13:24 24,6 C 25,6 C 20,6 C 85 % 1015,9 hPa 0,0 l/m 2 min 0 min 784 W/m 6,4 km/h (2 Bft) 97,87 %
18.08.2023 13:26 24,7 C 26,1 C 20,6 C 84 % 1015,9 hPa 0,0 l/m 2 min 0 min 753 W/m 3,2 km/h (1 Bft) 100,00 %
18.08.2023 13:28 24,7 C 26,1 C 20,6 C 84 % 1015,9 hPa 0,0 l/m 2 min 0 min 686 W/m 6,4 km/h (2 Bft) 100,00 %
18.08.2023 13:30 24,8 C 26,1 C 20,6 C 84 % 1015,9 hPa 0,0 l/m 2 min 0 min 742 W/m 9,7 km/h (2 Bft) 100,00 %
18.08.2023 13:32 24,8 C 26,1 C 20,6 C 83 % 1015,9 hPa 0,0 l/m 0 min 0 min 340 W/m 3,2 km/h (1 Bft) 97,87 %
18.08.2023 13:34 24,9 C 26,7 C 21,1 C 84 % 1015,9 hPa 0,0 l/m 2 min 0 min 558 W/m 6,4 km/h (2 Bft) 100,00 %
18.08.2023 13:36 25,0 C 26,7 C 20,6 C 84 % 1015,8 hPa 0,0 l/m 2 min 0 min 848 W/m 12,9 km/h (3 Bft) 97,83 %
18.08.2023 13:38 25,1 C 26,1 C 20,6 C 83 % 1015,8 hPa 0,0 l/m 2 min 0 min 812 W/m 6,4 km/h (2 Bft) 97,87 %
18.08.2023 13:40 25,1 C 26,1 C 20,6 C 83 % 1015,7 hPa 0,0 l/m 2 min 0 min 758 W/m 9,7 km/h (2 Bft) 97,87 %
18.08.2023 13:42 25,1 C 26,1 C 20,6 C 83 % 1015,7 hPa 0,0 l/m 2 min 0 min 807 W/m 3,2 km/h (1 Bft) 97,87 %
18.08.2023 13:44 25,2 C 26,7 C 20,6 C 83 % 1015,7 hPa 0,0 l/m 2 min 0 min 816 W/m 6,4 km/h (2 Bft) 97,87 %
18.08.2023 13:46 25,2 C 26,7 C 20,6 C 83 % 1015,6 hPa 0,0 l/m 2 min 0 min 776 W/m 3,2 km/h (1 Bft) 97,87 %
18.08.2023 13:48 25,2 C 26,7 C 20,6 C 83 % 1015,6 hPa 0,0 l/m 2 min 0 min 784 W/m 9,7 km/h (2 Bft) 97,83 %
18.08.2023 13:50 25,3 C 27,8 C 20,6 C 83 % 1015,6 hPa 0,0 l/m 2 min 0 min 778 W/m 9,7 km/h (2 Bft) 97,87 %
18.08.2023 13:52 25,4 C 30,0 C 21,1 C 83 % 1015,5 hPa 0,0 l/m 2 min 0 min 800 W/m 6,4 km/h (2 Bft) 97,87 %
18.08.2023 13:54 25,5 C 31,7 C 21,1 C 83 % 1015,5 hPa 0,0 l/m 2 min 0 min 791 W/m 3,2 km/h (1 Bft) 97,87 %
18.08.2023 13:56 25,6 C 32,2 C 20,6 C 83 % 1015,5 hPa 0,0 l/m 2 min 0 min 793 W/m 6,4 km/h (2 Bft) 97,87 %
18.08.2023 13:58 25,7 C 32,8 C 21,1 C 82 % 1015,5 hPa 0,0 l/m 2 min 0 min 808 W/m 6,4 km/h (2 Bft) 97,87 %
18.08.2023 14:00 25,8 C 32,8 C 20,6 C 81 % 1015,5 hPa 0,0 l/m 2 min 0 min 797 W/m 9,7 km/h (2 Bft) 95,65 %
18.08.2023 14:02 25,8 C 32,8 C 20,6 C 81 % 1015,5 hPa 0,0 l/m 2 min 0 min 779 W/m 9,7 km/h (2 Bft) 95,74 %
18.08.2023 14:04 25,9 C 32,8 C 20,6 C 81 % 1015,4 hPa 0,0 l/m 2 min 0 min 804 W/m 9,7 km/h (2 Bft) 98,00 %
18.08.2023 14:06 25,9 C 33,3 C 20,6 C 80 % 1015,4 hPa 0,0 l/m 2 min 0 min 794 W/m 6,4 km/h (2 Bft) 95,74 %
18.08.2023 14:08 26,0 C 33,9 C 20,6 C 81 % 1015,4 hPa 0,0 l/m 2 min 0 min 792 W/m 6,4 km/h (2 Bft) 97,87 %
18.08.2023 14:10 26,1 C 34,4 C 20,6 C 80 % 1015,4 hPa 0,0 l/m 2 min 0 min 772 W/m 6,4 km/h (2 Bft) 95,74 %
18.08.2023 14:12 26,1 C 33,3 C 20,6 C 80 % 1015,4 hPa 0,0 l/m 2 min 0 min 792 W/m 12,9 km/h (3 Bft) 97,87 %
18.08.2023 14:14 26,1 C 34,4 C 20,6 C 80 % 1015,4 hPa 0,0 l/m 2 min 0 min 792 W/m 6,4 km/h (2 Bft) 97,87 %
18.08.2023 14:16 26,2 C 33,9 C 20,6 C 80 % 1015,3 hPa 0,0 l/m 2 min 0 min 797 W/m 9,7 km/h (2 Bft) 95,65 %
18.08.2023 14:18 26,3 C 33,9 C 21,1 C 80 % 1015,3 hPa 0,0 l/m 2 min 0 min 793 W/m 9,7 km/h (2 Bft) 95,74 %
18.08.2023 14:20 26,3 C 33,9 C 21,1 C 80 % 1015,3 hPa 0,0 l/m 2 min 0 min 768 W/m 9,7 km/h (2 Bft) 95,74 %
18.08.2023 14:22 26,5 C 34,4 C 21,1 C 81 % 1015,3 hPa 0,0 l/m 2 min 0 min 774 W/m 6,4 km/h (2 Bft) 93,62 %
18.08.2023 14:24 26,6 C 34,4 C 21,1 C 80 % 1015,3 hPa 0,0 l/m 2 min 0 min 789 W/m 6,4 km/h (2 Bft) 95,74 %
18.08.2023 14:26 26,6 C 33,9 C 21,1 C 79 % 1015,2 hPa 0,0 l/m 2 min 0 min 774 W/m 6,4 km/h (2 Bft) 95,74 %
18.08.2023 14:28 26,6 C 33,9 C 21,1 C 78 % 1015,2 hPa 0,0 l/m 2 min 0 min 778 W/m 6,4 km/h (2 Bft) 97,83 %
18.08.2023 14:30 26,7 C 33,9 C 21,1 C 79 % 1015,3 hPa 0,0 l/m 2 min 0 min 782 W/m 12,9 km/h (3 Bft) 97,87 %
18.08.2023 14:32 26,7 C 35,0 C 21,1 C 79 % 1015,2 hPa 0,0 l/m 2 min 0 min 790 W/m 9,7 km/h (2 Bft) 97,87 %
18.08.2023 14:34 26,8 C 35,0 C 21,1 C 78 % 1015,2 hPa 0,0 l/m 2 min 0 min 781 W/m 6,4 km/h (2 Bft) 97,87 %
18.08.2023 14:36 26,8 C 33,9 C 21,1 C 78 % 1015,2 hPa 0,0 l/m 2 min 0 min 776 W/m 6,4 km/h (2 Bft) 97,87 %
18.08.2023 14:38 26,8 C 33,9 C 21,1 C 78 % 1015,2 hPa 0,0 l/m 2 min 0 min 786 W/m 6,4 km/h (2 Bft) 97,87 %
18.08.2023 14:40 26,9 C 34,4 C 21,1 C 79 % 1015,1 hPa 0,0 l/m 2 min 0 min 773 W/m 9,7 km/h (2 Bft) 97,87 %
18.08.2023 14:42 27,0 C 33,9 C 21,7 C 79 % 1015,1 hPa 0,0 l/m 2 min 0 min 777 W/m 9,7 km/h (2 Bft) 97,83 %
18.08.2023 14:44 27,1 C 33,9 C 21,7 C 79 % 1015,0 hPa 0,0 l/m 2 min 0 min 733 W/m 6,4 km/h (2 Bft) 97,87 %
18.08.2023 14:46 27,2 C 34,4 C 21,7 C 79 % 1015,0 hPa 0,0 l/m 2 min 0 min 773 W/m 3,2 km/h (1 Bft) 97,22 %
18.08.2023 14:48 27,2 C 33,9 C 21,7 C 79 % 1015,1 hPa 0,0 l/m 2 min 0 min 780 W/m 6,4 km/h (2 Bft) 98,28 %
18.08.2023 14:50 27,3 C 34,4 C 21,7 C 78 % 1015,0 hPa 0,0 l/m 2 min 0 min 786 W/m 6,4 km/h (2 Bft) 100,00 %
18.08.2023 14:52 27,3 C 33,9 C 21,7 C 78 % 1015,0 hPa 0,0 l/m 2 min 0 min 767 W/m 6,4 km/h (2 Bft) 95,74 %
18.08.2023 14:54 27,4 C 33,9 C 21,7 C 78 % 1015,0 hPa 0,0 l/m 2 min 0 min 756 W/m 9,7 km/h (2 Bft) 100,00 %
18.08.2023 14:56 27,5 C 33,9 C 21,7 C 78 % 1015,0 hPa 0,0 l/m 2 min 0 min 755 W/m 6,4 km/h (2 Bft) 95,74 %
18.08.2023 14:58 27,6 C 33,3 C 21,7 C 78 % 1015,1 hPa 0,0 l/m 2 min 0 min 757 W/m 6,4 km/h (2 Bft) 97,87 %
18.08.2023 15:00 27,5 C 32,8 C 21,7 C 77 % 1015,1 hPa 0,0 l/m 2 min 0 min 744 W/m 6,4 km/h (2 Bft) 98,28 %
18.08.2023 15:02 27,5 C 32,2 C 21,7 C 78 % 1015,1 hPa 0,0 l/m 2 min 0 min 713 W/m 12,9 km/h (3 Bft) 97,14 %
18.08.2023 15:04 27,5 C 32,8 C 21,7 C 78 % 1015,0 hPa 0,0 l/m 2 min 0 min 703 W/m 9,7 km/h (2 Bft) 98,04 %
18.08.2023 15:06 27,4 C 32,2 C 21,7 C 78 % 1015,1 hPa 0,0 l/m 2 min 0 min 681 W/m 6,4 km/h (2 Bft) 98,31 %
18.08.2023 15:08 27,4 C 32,2 C 21,7 C 78 % 1015,1 hPa 0,0 l/m 2 min 0 min 675 W/m 6,4 km/h (2 Bft) 95,74 %
18.08.2023 15:10 27,4 C 32,8 C 21,7 C 78 % 1015,0 hPa 0,0 l/m 2 min 0 min 681 W/m 6,4 km/h (2 Bft) 100,00 %
18.08.2023 15:12 27,5 C 32,2 C 22,2 C 78 % 1015,1 hPa 0,0 l/m 2 min 0 min 676 W/m 12,9 km/h (3 Bft) 95,74 %
18.08.2023 15:14 27,6 C 32,2 C 22,2 C 78 % 1015,1 hPa 0,0 l/m 2 min 0 min 681 W/m 6,4 km/h (2 Bft) 97,83 %
18.08.2023 15:16 27,6 C 31,1 C 22,2 C 77 % 1015,1 hPa 0,0 l/m 2 min 0 min 648 W/m 6,4 km/h (2 Bft) 97,87 %
18.08.2023 15:18 27,6 C 31,7 C 22,2 C 78 % 1015,2 hPa 0,0 l/m 2 min 0 min 680 W/m 6,4 km/h (2 Bft) 97,87 %
18.08.2023 15:20 27,6 C 32,2 C 22,2 C 77 % 1015,2 hPa 0,0 l/m 2 min 0 min 703 W/m 9,7 km/h (2 Bft) 97,87 %
18.08.2023 15:22 27,7 C 32,2 C 22,2 C 78 % 1015,2 hPa 0,0 l/m 2 min 0 min 692 W/m 3,2 km/h (1 Bft) 97,87 %
18.08.2023 15:24 27,8 C 32,8 C 22,2 C 78 % 1015,2 hPa 0,0 l/m 2 min 0 min 717 W/m 6,4 km/h (2 Bft) 95,74 %
18.08.2023 15:26 27,8 C 32,2 C 22,2 C 77 % 1015,1 hPa 0,0 l/m 2 min 0 min 724 W/m 6,4 km/h (2 Bft) 95,74 %
18.08.2023 15:28 27,9 C 31,1 C 22,2 C 77 % 1015,1 hPa 0,0 l/m 2 min 0 min 714 W/m 9,7 km/h (2 Bft) 97,83 %
18.08.2023 15:30 27,8 C 30,6 C 22,2 C 77 % 1015,1 hPa 0,0 l/m 2 min 0 min 714 W/m 9,7 km/h (2 Bft) 95,74 %
18.08.2023 15:32 27,8 C 30,6 C 22,2 C 77 % 1015,2 hPa 0,0 l/m 2 min 0 min 725 W/m 6,4 km/h (2 Bft) 97,87 %
18.08.2023 15:34 27,8 C 30,0 C 22,2 C 76 % 1015,1 hPa 0,0 l/m 2 min 0 min 692 W/m 3,2 km/h (1 Bft) 97,87 %
18.08.2023 15:36 27,9 C 30,0 C 22,2 C 77 % 1015,1 hPa 0,0 l/m 2 min 0 min 699 W/m 3,2 km/h (1 Bft) 100,00 %
18.08.2023 15:38 27,8 C 29,4 C 22,2 C 76 % 1015,1 hPa 0,0 l/m 2 min 0 min 713 W/m 12,9 km/h (3 Bft) 100,00 %
18.08.2023 15:40 27,8 C 30,6 C 22,2 C 77 % 1015,1 hPa 0,0 l/m 2 min 0 min 713 W/m 12,9 km/h (3 Bft) 100,00 %
18.08.2023 15:42 27,8 C 30,6 C 22,2 C 77 % 1015,1 hPa 0,0 l/m 2 min 0 min 709 W/m 9,7 km/h (2 Bft) 100,00 %
18.08.2023 15:44 27,8 C 30,6 C 22,2 C 77 % 1015,0 hPa 0,0 l/m 2 min 0 min 698 W/m 3,2 km/h (1 Bft) 97,87 %
18.08.2023 15:46 27,8 C 30,6 C 22,2 C 78 % 1015,0 hPa 0,0 l/m 2 min 0 min 695 W/m 3,2 km/h (1 Bft) 97,87 %
18.08.2023 15:48 27,8 C 31,1 C 22,2 C 77 % 1015,0 hPa 0,0 l/m 2 min 0 min 701 W/m 9,7 km/h (2 Bft) 100,00 %
18.08.2023 15:50 27,9 C 31,1 C 22,2 C 77 % 1015,0 hPa 0,0 l/m 2 min 0 min 700 W/m 6,4 km/h (2 Bft) 100,00 %
18.08.2023 15:52 27,9 C 30,6 C 22,8 C 77 % 1015,0 hPa 0,0 l/m 2 min 0 min 693 W/m 6,4 km/h (2 Bft) 100,00 %
18.08.2023 15:54 28,0 C 30,6 C 22,8 C 77 % 1015,0 hPa 0,0 l/m 2 min 0 min 690 W/m 3,2 km/h (1 Bft) 100,00 %
18.08.2023 15:56 28,1 C 30,6 C 22,8 C 78 % 1014,9 hPa 0,0 l/m 2 min 0 min 681 W/m 6,4 km/h (2 Bft) 100,00 %
18.08.2023 15:58 28,2 C 30,6 C 22,8 C 77 % 1014,9 hPa 0,0 l/m 2 min 0 min 670 W/m 6,4 km/h (2 Bft) 97,87 %
18.08.2023 16:00 28,2 C 30,6 C 22,8 C 77 % 1014,8 hPa 0,0 l/m 2 min 0 min 655 W/m 6,4 km/h (2 Bft) 97,87 %
18.08.2023 16:02 28,3 C 30,0 C 22,8 C 77 % 1014,9 hPa 0,0 l/m 2 min 0 min 659 W/m 12,9 km/h (3 Bft) 97,87 %
18.08.2023 16:04 28,3 C 30,0 C 22,8 C 77 % 1014,9 hPa 0,0 l/m 2 min 0 min 638 W/m 3,2 km/h (1 Bft) 98,00 %
18.08.2023 16:06 28,4 C 30,6 C 22,8 C 77 % 1014,8 hPa 0,0 l/m 2 min 0 min 611 W/m 3,2 km/h (1 Bft) 97,14 %
18.08.2023 16:08 28,5 C 31,1 C 22,8 C 77 % 1014,8 hPa 0,0 l/m 2 min 0 min 636 W/m 6,4 km/h (2 Bft) 98,31 %
18.08.2023 16:10 28,5 C 31,7 C 22,8 C 76 % 1014,8 hPa 0,0 l/m 2 min 0 min 641 W/m 6,4 km/h (2 Bft) 97,87 %
18.08.2023 16:12 28,5 C 31,1 C 22,8 C 76 % 1014,8 hPa 0,0 l/m 2 min 0 min 666 W/m 3,2 km/h (1 Bft) 97,87 %
18.08.2023 16:14 28,5 C 30,6 C 22,8 C 76 % 1014,8 hPa 0,0 l/m 2 min 0 min 636 W/m 9,7 km/h (2 Bft) 97,87 %
18.08.2023 16:16 28,5 C 30,0 C 22,8 C 76 % 1014,8 hPa 0,0 l/m 2 min 0 min 623 W/m 6,4 km/h (2 Bft) 97,87 %
18.08.2023 16:18 28,6 C 30,0 C 23,3 C 76 % 1014,8 hPa 0,0 l/m 2 min 0 min 635 W/m 6,4 km/h (2 Bft) 93,62 %
18.08.2023 16:20 28,6 C 30,0 C 23,3 C 76 % 1014,8 hPa 0,0 l/m 2 min 0 min 647 W/m 6,4 km/h (2 Bft) 97,83 %
18.08.2023 16:22 28,7 C 30,0 C 23,3 C 76 % 1014,7 hPa 0,0 l/m 2 min 0 min 650 W/m 6,4 km/h (2 Bft) 97,87 %
18.08.2023 16:24 28,8 C 30,0 C 23,3 C 76 % 1014,7 hPa 0,0 l/m 2 min 0 min 645 W/m 6,4 km/h (2 Bft) 100,00 %
18.08.2023 16:26 28,7 C 29,4 C 23,3 C 75 % 1014,7 hPa 0,0 l/m 2 min 0 min 633 W/m 6,4 km/h (2 Bft) 100,00 %
18.08.2023 16:28 28,7 C 29,4 C 22,8 C 74 % 1014,7 hPa 0,0 l/m 2 min 0 min 633 W/m 3,2 km/h (1 Bft) 97,87 %
18.08.2023 16:30 28,7 C 29,4 C 23,3 C 76 % 1014,7 hPa 0,0 l/m 2 min 0 min 632 W/m 6,4 km/h (2 Bft) 97,87 %
18.08.2023 16:32 28,7 C 30,0 C 23,3 C 75 % 1014,7 hPa 0,0 l/m 2 min 0 min 626 W/m 6,4 km/h (2 Bft) 97,83 %
18.08.2023 16:34 28,8 C 29,4 C 23,3 C 75 % 1014,6 hPa 0,0 l/m 2 min 0 min 627 W/m 6,4 km/h (2 Bft) 97,87 %
18.08.2023 16:36 28,8 C 29,4 C 23,3 C 75 % 1014,6 hPa 0,0 l/m 2 min 0 min 596 W/m 6,4 km/h (2 Bft) 95,74 %
18.08.2023 16:38 28,9 C 30,0 C 23,3 C 76 % 1014,6 hPa 0,0 l/m 2 min 0 min 601 W/m 6,4 km/h (2 Bft) 97,87 %
18.08.2023 16:42 28,9 C 30,0 C 23,3 C 75 % 1014,6 hPa 0,0 l/m 4 min 0 min 578 W/m 9,7 km/h (2 Bft) 96,67 %
18.08.2023 16:44 29,0 C 30,0 C 23,3 C 75 % 1014,6 hPa 0,0 l/m 2 min 0 min 566 W/m 6,4 km/h (2 Bft) 95,74 %
18.08.2023 16:46 29,1 C 29,4 C 23,3 C 75 % 1014,6 hPa 0,0 l/m 2 min 0 min 479 W/m 6,4 km/h (2 Bft) 97,87 %
18.08.2023 16:48 29,1 C 29,4 C 23,3 C 75 % 1014,5 hPa 0,0 l/m 2 min 0 min 356 W/m 3,2 km/h (1 Bft) 95,65 %
18.08.2023 16:50 29,1 C 30,0 C 23,3 C 75 % 1014,6 hPa 0,0 l/m 2 min 0 min 557 W/m 3,2 km/h (1 Bft) 95,74 %
18.08.2023 16:52 29,1 C 30,0 C 22,8 C 74 % 1014,6 hPa 0,0 l/m 2 min 0 min 524 W/m 3,2 km/h (1 Bft) 97,87 %
18.08.2023 16:54 29,1 C 30,6 C 22,8 C 74 % 1014,6 hPa 0,0 l/m 2 min 0 min 540 W/m 3,2 km/h (1 Bft) 97,87 %
18.08.2023 16:56 29,2 C 30,0 C 22,8 C 74 % 1014,6 hPa 0,0 l/m 2 min 0 min 504 W/m 3,2 km/h (1 Bft) 95,74 %
18.08.2023 16:58 29,2 C 30,0 C 23,3 C 75 % 1014,6 hPa 0,0 l/m 2 min 0 min 496 W/m 9,7 km/h (2 Bft) 97,87 %
18.08.2023 17:00 29,1 C 29,4 C 23,3 C 74 % 1014,6 hPa 0,0 l/m 2 min 0 min 529 W/m 3,2 km/h (1 Bft) 97,87 %
18.08.2023 17:02 29,2 C 30,0 C 23,3 C 75 % 1014,5 hPa 0,0 l/m 2 min 0 min 547 W/m 3,2 km/h (1 Bft) 95,65 %
18.08.2023 17:04 29,2 C 30,0 C 23,3 C 75 % 1014,5 hPa 0,0 l/m 2 min 0 min 553 W/m 6,4 km/h (2 Bft) 97,67 %
18.08.2023 17:06 29,3 C 30,0 C 23,3 C 75 % 1014,5 hPa 0,0 l/m 2 min 0 min 550 W/m 9,7 km/h (2 Bft) 98,31 %
18.08.2023 17:08 29,3 C 30,0 C 23,3 C 75 % 1014,5 hPa 0,0 l/m 2 min 0 min 541 W/m 6,4 km/h (2 Bft) 91,43 %
18.08.2023 17:10 29,3 C 30,6 C 23,9 C 74 % 1014,5 hPa 0,0 l/m 2 min 0 min 533 W/m 6,4 km/h (2 Bft) 98,36 %
18.08.2023 17:20 29,6 C 32,8 C 23,9 C 74 % 1014,4 hPa 0,0 l/m 5 min 0 min 506 W/m 6,4 km/h (2 Bft) 98,15 %
18.08.2023 17:22 29,6 C 32,8 C 23,9 C 73 % 1014,4 hPa 0,0 l/m 2 min 0 min 502 W/m 3,2 km/h (1 Bft) 97,87 %
18.08.2023 17:24 29,6 C 32,8 C 23,9 C 73 % 1014,4 hPa 0,0 l/m 2 min 0 min 501 W/m 12,9 km/h (3 Bft) 100,00 %
18.08.2023 17:26 29,6 C 32,8 C 24,4 C 73 % 1014,4 hPa 0,0 l/m 2 min 0 min 497 W/m 6,4 km/h (2 Bft) 95,74 %
18.08.2023 17:28 29,7 C 32,8 C 24,4 C 74 % 1014,3 hPa 0,0 l/m 2 min 0 min 488 W/m 16,1 km/h (3 Bft) 100,00 %
18.08.2023 17:30 29,6 C 32,8 C 24,4 C 73 % 1014,3 hPa 0,0 l/m 2 min 0 min 480 W/m 0,0 km/h (0 Bft) 97,87 %
18.08.2023 17:32 29,7 C 33,3 C 24,4 C 74 % 1014,3 hPa 0,0 l/m 2 min 0 min 472 W/m 3,2 km/h (1 Bft) 95,74 %
18.08.2023 17:34 29,6 C 32,8 C 24,4 C 73 % 1014,3 hPa 0,0 l/m 2 min 0 min 437 W/m 6,4 km/h (2 Bft) 97,83 %
18.08.2023 17:36 29,6 C 32,8 C 24,4 C 73 % 1014,3 hPa 0,0 l/m 2 min 0 min 394 W/m 6,4 km/h (2 Bft) 97,87 %
18.08.2023 17:38 29,6 C 32,2 C 24,4 C 74 % 1014,3 hPa 0,0 l/m 2 min 0 min 320 W/m 6,4 km/h (2 Bft) 95,74 %
18.08.2023 17:40 29,6 C 31,7 C 24,4 C 74 % 1014,3 hPa 0,0 l/m 2 min 0 min 295 W/m 6,4 km/h (2 Bft) 97,87 %
18.08.2023 17:42 29,6 C 31,7 C 24,4 C 74 % 1014,3 hPa 0,0 l/m 2 min 0 min 280 W/m 6,4 km/h (2 Bft) 95,74 %
18.08.2023 17:44 29,6 C 31,1 C 24,4 C 74 % 1014,3 hPa 0,0 l/m 2 min 0 min 264 W/m 6,4 km/h (2 Bft) 95,74 %
18.08.2023 17:46 29,6 C 31,1 C 24,4 C 74 % 1014,4 hPa 0,0 l/m 2 min 0 min 268 W/m 3,2 km/h (1 Bft) 97,87 %
18.08.2023 17:48 29,6 C 31,1 C 23,9 C 74 % 1014,3 hPa 0,0 l/m 2 min 0 min 237 W/m 6,4 km/h (2 Bft) 91,30 %
18.08.2023 17:50 29,6 C 30,6 C 23,9 C 74 % 1014,3 hPa 0,0 l/m 0 min 0 min 217 W/m 6,4 km/h (2 Bft) 93,62 %
18.08.2023 17:52 29,4 C 31,1 C 23,9 C 75 % 1014,3 hPa 0,0 l/m 2 min 0 min 253 W/m 3,2 km/h (1 Bft) 95,74 %
18.08.2023 17:54 29,5 C 31,7 C 24,4 C 75 % 1014,2 hPa 0,0 l/m 2 min 0 min 352 W/m 3,2 km/h (1 Bft) 97,87 %
18.08.2023 17:56 29,5 C 31,7 C 24,4 C 74 % 1014,2 hPa 0,0 l/m 2 min 0 min 386 W/m 6,4 km/h (2 Bft) 95,74 %
18.08.2023 17:58 29,5 C 32,2 C 24,4 C 74 % 1014,1 hPa 0,0 l/m 2 min 0 min 389 W/m 6,4 km/h (2 Bft) 97,87 %
18.08.2023 18:00 29,5 C 32,2 C 24,4 C 73 % 1014,1 hPa 0,0 l/m 2 min 0 min 353 W/m 6,4 km/h (2 Bft) 97,83 %
18.08.2023 18:02 29,5 C 32,2 C 24,4 C 74 % 1014,0 hPa 0,0 l/m 2 min 0 min 336 W/m 6,4 km/h (2 Bft) 95,74 %
18.08.2023 18:04 29,5 C 31,7 C 24,4 C 74 % 1014,0 hPa 0,0 l/m 2 min 0 min 290 W/m 12,9 km/h (3 Bft) 95,92 %
18.08.2023 18:08 29,4 C 31,1 C 23,9 C 74 % 1013,9 hPa 0,0 l/m 4 min 0 min 215 W/m 6,4 km/h (2 Bft) 96,84 %
18.08.2023 18:10 29,5 C 30,6 C 23,9 C 75 % 1013,9 hPa 0,0 l/m 2 min 0 min 213 W/m 3,2 km/h (1 Bft) 97,87 %
18.08.2023 18:12 29,5 C 30,6 C 23,9 C 75 % 1013,9 hPa 0,0 l/m 2 min 0 min 213 W/m 6,4 km/h (2 Bft) 97,87 %
18.08.2023 18:14 29,4 C 30,6 C 23,9 C 75 % 1013,9 hPa 0,0 l/m 0 min 0 min 187 W/m 3,2 km/h (1 Bft) 95,65 %
18.08.2023 18:16 29,3 C 30,0 C 23,9 C 75 % 1013,9 hPa 0,0 l/m 0 min 0 min 170 W/m 9,7 km/h (2 Bft) 95,74 %
18.08.2023 18:18 29,3 C 30,0 C 23,9 C 75 % 1013,8 hPa 0,0 l/m 2 min 0 min 205 W/m 0,0 km/h (0 Bft) 97,87 %
18.08.2023 18:20 29,2 C 30,0 C 23,9 C 75 % 1013,8 hPa 0,0 l/m 0 min 0 min 170 W/m 0,0 km/h (0 Bft) 95,45 %
18.08.2023 18:22 29,2 C 29,4 C 23,9 C 75 % 1013,9 hPa 0,0 l/m 0 min 0 min 125 W/m 0,0 km/h (0 Bft) 94,00 %
18.08.2023 18:24 29,1 C 28,9 C 23,9 C 75 % 1013,8 hPa 0,0 l/m 0 min 0 min 117 W/m 0,0 km/h (0 Bft) 97,87 %
18.08.2023 18:26 29,1 C 28,3 C 23,3 C 75 % 1013,9 hPa 0,0 l/m 0 min 0 min 119 W/m 0,0 km/h (0 Bft) 95,65 %
18.08.2023 18:28 29,0 C 28,9 C 23,3 C 75 % 1013,8 hPa 0,0 l/m 0 min 0 min 158 W/m 0,0 km/h (0 Bft) 97,87 %
18.08.2023 18:30 28,9 C 28,9 C 23,3 C 76 % 1013,9 hPa 0,0 l/m 0 min 0 min 165 W/m 3,2 km/h (1 Bft) 97,87 %
18.08.2023 18:32 28,8 C 28,9 C 23,3 C 76 % 1013,9 hPa 0,0 l/m 0 min 0 min 157 W/m 3,2 km/h (1 Bft) 97,87 %
18.08.2023 18:34 28,8 C 28,9 C 23,3 C 76 % 1013,9 hPa 0,0 l/m 0 min 0 min 129 W/m 6,4 km/h (2 Bft) 100,00 %
18.08.2023 18:36 28,7 C 28,3 C 23,3 C 76 % 1013,9 hPa 0,0 l/m 0 min 0 min 128 W/m 6,4 km/h (2 Bft) 97,87 %
18.08.2023 18:38 28,6 C 28,3 C 23,3 C 76 % 1013,9 hPa 0,0 l/m 0 min 0 min 135 W/m 6,4 km/h (2 Bft) 97,87 %
18.08.2023 18:40 28,6 C 28,3 C 22,8 C 77 % 1013,9 hPa 0,0 l/m 0 min 0 min 116 W/m 6,4 km/h (2 Bft) 100,00 %
18.08.2023 18:42 28,5 C 28,3 C 22,8 C 77 % 1013,8 hPa 0,0 l/m 0 min 0 min 122 W/m 6,4 km/h (2 Bft) 100,00 %
18.08.2023 18:44 28,4 C 27,8 C 22,8 C 77 % 1013,9 hPa 0,0 l/m 2 min 0 min 162 W/m 6,4 km/h (2 Bft) 97,87 %
18.08.2023 18:46 28,4 C 27,8 C 22,8 C 77 % 1013,9 hPa 0,0 l/m 2 min 0 min 154 W/m 6,4 km/h (2 Bft) 97,87 %
18.08.2023 18:48 28,4 C 27,8 C 22,8 C 78 % 1013,9 hPa 0,0 l/m 2 min 0 min 158 W/m 3,2 km/h (1 Bft) 100,00 %
18.08.2023 18:50 28,4 C 27,8 C 22,8 C 78 % 1013,9 hPa 0,0 l/m 2 min 0 min 213 W/m 3,2 km/h (1 Bft) 95,74 %
18.08.2023 18:52 28,4 C 27,8 C 22,8 C 78 % 1013,9 hPa 0,0 l/m 2 min 0 min 249 W/m 3,2 km/h (1 Bft) 97,87 %
18.08.2023 18:54 28,3 C 27,8 C 22,8 C 78 % 1013,8 hPa 0,0 l/m 2 min 0 min 270 W/m 3,2 km/h (1 Bft) 100,00 %
18.08.2023 18:56 28,3 C 27,8 C 22,8 C 78 % 1013,8 hPa 0,0 l/m 2 min 0 min 271 W/m 9,7 km/h (2 Bft) 97,87 %
18.08.2023 18:58 28,3 C 27,8 C 22,8 C 78 % 1013,7 hPa 0,0 l/m 2 min 0 min 269 W/m 9,7 km/h (2 Bft) 100,00 %
18.08.2023 19:00 28,4 C 27,8 C 22,8 C 79 % 1013,9 hPa 0,0 l/m 2 min 0 min 257 W/m 6,4 km/h (2 Bft) 100,00 %
18.08.2023 19:02 28,3 C 27,8 C 22,8 C 79 % 1013,9 hPa 0,0 l/m 2 min 0 min 184 W/m 3,2 km/h (1 Bft) 97,87 %
18.08.2023 19:04 28,3 C 27,8 C 22,8 C 79 % 1013,9 hPa 0,0 l/m 2 min 0 min 130 W/m 6,4 km/h (2 Bft) 100,00 %
18.08.2023 19:06 28,3 C 27,8 C 22,8 C 79 % 1013,8 hPa 0,0 l/m 0 min 0 min 120 W/m 6,4 km/h (2 Bft) 98,31 %
18.08.2023 19:08 28,3 C 27,8 C 22,8 C 79 % 1013,7 hPa 0,0 l/m 0 min 0 min 112 W/m 9,7 km/h (2 Bft) 100,00 %
18.08.2023 19:10 28,3 C 27,8 C 23,3 C 79 % 1013,7 hPa 0,0 l/m 0 min 0 min 110 W/m 6,4 km/h (2 Bft) 100,00 %
18.08.2023 19:12 28,3 C 27,8 C 23,3 C 78 % 1013,8 hPa 0,0 l/m 0 min 0 min 107 W/m 12,9 km/h (3 Bft) 100,00 %
18.08.2023 19:14 28,3 C 27,8 C 22,8 C 78 % 1013,8 hPa 0,0 l/m 0 min 0 min 103 W/m 0,0 km/h (0 Bft) 97,87 %
18.08.2023 19:16 28,3 C 27,8 C 22,8 C 78 % 1013,8 hPa 0,0 l/m 0 min 0 min 101 W/m 0,0 km/h (0 Bft) 91,49 %
18.08.2023 19:18 28,3 C 27,2 C 22,8 C 78 % 1013,8 hPa 0,0 l/m 0 min 0 min 90 W/m 0,0 km/h (0 Bft) 97,87 %
18.08.2023 19:20 28,3 C 27,2 C 22,8 C 78 % 1013,7 hPa 0,0 l/m 0 min 0 min 85 W/m 12,9 km/h (3 Bft) 95,74 %
18.08.2023 19:22 28,2 C 27,2 C 22,8 C 78 % 1013,7 hPa 0,0 l/m 0 min 0 min 76 W/m 0,0 km/h (0 Bft) 95,74 %
18.08.2023 19:24 28,2 C 27,2 C 22,8 C 78 % 1013,8 hPa 0,0 l/m 0 min 0 min 69 W/m 0,0 km/h (0 Bft) 95,74 %
18.08.2023 19:26 28,2 C 27,2 C 22,8 C 79 % 1013,7 hPa 0,0 l/m 0 min 0 min 64 W/m 0,0 km/h (0 Bft) 96,30 %
18.08.2023 19:28 28,1 C 27,2 C 22,8 C 79 % 1013,7 hPa 0,0 l/m 0 min 0 min 61 W/m 0,0 km/h (0 Bft) 94,00 %
18.08.2023 19:30 28,1 C 26,7 C 22,8 C 79 % 1013,7 hPa 0,0 l/m 0 min 0 min 56 W/m 0,0 km/h (0 Bft) 95,74 %
18.08.2023 19:32 28,1 C 26,7 C 22,8 C 79 % 1013,7 hPa 0,0 l/m 0 min 0 min 52 W/m 0,0 km/h (0 Bft) 93,62 %
18.08.2023 19:34 28,0 C 26,7 C 22,2 C 79 % 1013,8 hPa 0,0 l/m 0 min 0 min 49 W/m 3,2 km/h (1 Bft) 97,83 %
18.08.2023 19:36 27,9 C 26,7 C 22,2 C 79 % 1013,6 hPa 0,0 l/m 0 min 0 min 47 W/m 0,0 km/h (0 Bft) 95,74 %
18.08.2023 19:38 27,9 C 26,7 C 22,2 C 79 % 1013,7 hPa 0,0 l/m 0 min 0 min 45 W/m 0,0 km/h (0 Bft) 97,87 %
18.08.2023 19:40 27,9 C 26,7 C 22,2 C 79 % 1013,7 hPa 0,0 l/m 0 min 0 min 44 W/m 0,0 km/h (0 Bft) 95,74 %
18.08.2023 19:42 27,8 C 26,1 C 22,2 C 79 % 1013,7 hPa 0,0 l/m 0 min 0 min 46 W/m 0,0 km/h (0 Bft) 93,62 %
18.08.2023 19:44 27,8 C 26,1 C 22,2 C 80 % 1013,7 hPa 0,0 l/m 0 min 0 min 50 W/m 0,0 km/h (0 Bft) 97,87 %
18.08.2023 19:46 27,7 C 26,1 C 21,7 C 80 % 1013,8 hPa 0,0 l/m 0 min 0 min 51 W/m 0,0 km/h (0 Bft) 97,87 %
18.08.2023 19:48 27,7 C 26,1 C 21,7 C 80 % 1013,8 hPa 0,0 l/m 0 min 0 min 51 W/m 0,0 km/h (0 Bft) 95,74 %
18.08.2023 19:50 27,6 C 26,1 C 21,7 C 80 % 1013,7 hPa 0,0 l/m 0 min 0 min 51 W/m 0,0 km/h (0 Bft) 100,00 %
18.08.2023 19:52 27,6 C 26,1 C 21,7 C 81 % 1013,7 hPa 0,0 l/m 0 min 0 min 51 W/m 0,0 km/h (0 Bft) 97,87 %
18.08.2023 19:54 27,6 C 26,1 C 21,7 C 81 % 1013,7 hPa 0,0 l/m 0 min 0 min 53 W/m 0,0 km/h (0 Bft) 95,74 %
18.08.2023 19:56 27,6 C 26,1 C 21,7 C 81 % 1013,7 hPa 0,0 l/m 0 min 0 min 52 W/m 0,0 km/h (0 Bft) 97,87 %
18.08.2023 19:58 27,5 C 26,1 C 21,7 C 81 % 1013,7 hPa 0,0 l/m 0 min 0 min 48 W/m 0,0 km/h (0 Bft) 95,74 %
18.08.2023 20:00 27,4 C 26,1 C 21,7 C 81 % 1013,7 hPa 0,0 l/m 0 min 0 min 49 W/m 0,0 km/h (0 Bft) 95,74 %
18.08.2023 20:02 27,4 C 26,1 C 21,7 C 81 % 1013,7 hPa 0,0 l/m 0 min 0 min 49 W/m 0,0 km/h (0 Bft) 97,87 %
18.08.2023 20:04 27,3 C 26,1 C 21,7 C 81 % 1013,7 hPa 0,0 l/m 0 min 0 min 50 W/m 0,0 km/h (0 Bft) 97,83 %
18.08.2023 20:06 27,3 C 26,1 C 21,7 C 81 % 1013,7 hPa 0,0 l/m 2 min 0 min 51 W/m 0,0 km/h (0 Bft) 95,74 %
18.08.2023 20:08 27,2 C 26,1 C 21,7 C 82 % 1013,7 hPa 0,0 l/m 2 min 0 min 51 W/m 0,0 km/h (0 Bft) 97,87 %
18.08.2023 20:10 27,2 C 26,1 C 21,7 C 82 % 1013,6 hPa 0,0 l/m 2 min 0 min 47 W/m 0,0 km/h (0 Bft) 97,87 %
18.08.2023 20:12 27,2 C 26,1 C 21,7 C 82 % 1013,6 hPa 0,0 l/m 2 min 0 min 42 W/m 0,0 km/h (0 Bft) 95,74 %
18.08.2023 20:14 27,1 C 26,1 C 21,7 C 82 % 1013,6 hPa 0,0 l/m 2 min 0 min 39 W/m 0,0 km/h (0 Bft) 97,87 %
18.08.2023 20:16 27,1 C 26,1 C 21,7 C 82 % 1013,5 hPa 0,0 l/m 0 min 0 min 33 W/m 0,0 km/h (0 Bft) 97,14 %
18.08.2023 20:18 27,1 C 26,1 C 21,7 C 82 % 1013,5 hPa 0,0 l/m 0 min 0 min 30 W/m 0,0 km/h (0 Bft) 96,55 %
18.08.2023 20:20 27,1 C 26,1 C 21,7 C 82 % 1013,5 hPa 0,0 l/m 0 min 0 min 27 W/m 0,0 km/h (0 Bft) 95,74 %
18.08.2023 20:22 27,0 C 25,6 C 21,7 C 82 % 1013,6 hPa 0,0 l/m 0 min 0 min 26 W/m 0,0 km/h (0 Bft) 95,74 %
18.08.2023 20:24 27,0 C 25,6 C 21,7 C 83 % 1013,6 hPa 0,0 l/m 0 min 0 min 26 W/m 0,0 km/h (0 Bft) 94,29 %
18.08.2023 20:26 26,9 C 25,6 C 21,7 C 83 % 1013,6 hPa 0,0 l/m 2 min 0 min 25 W/m 0,0 km/h (0 Bft) 93,22 %
18.08.2023 20:28 26,9 C 25,6 C 21,7 C 83 % 1013,7 hPa 0,0 l/m 2 min 0 min 24 W/m 0,0 km/h (0 Bft) 91,43 %
18.08.2023 20:30 26,8 C 25,6 C 21,7 C 83 % 1013,7 hPa 0,0 l/m 2 min 0 min 21 W/m 0,0 km/h (0 Bft) 95,74 %
18.08.2023 20:32 26,8 C 25,6 C 21,7 C 83 % 1013,7 hPa 0,0 l/m 2 min 0 min 20 W/m 0,0 km/h (0 Bft) 93,62 %
18.08.2023 20:34 26,8 C 25,6 C 21,1 C 83 % 1013,6 hPa 0,0 l/m 0 min 0 min 16 W/m 0,0 km/h (0 Bft) 95,65 %
18.08.2023 20:36 26,7 C 25,6 C 21,1 C 83 % 1013,6 hPa 0,0 l/m 0 min 0 min 13 W/m 0,0 km/h (0 Bft) 95,74 %
18.08.2023 20:38 26,7 C 25,6 C 21,1 C 83 % 1013,6 hPa 0,0 l/m 0 min 0 min 11 W/m 0,0 km/h (0 Bft) 91,49 %
18.08.2023 20:40 26,6 C 25,0 C 21,1 C 83 % 1013,6 hPa 0,0 l/m 0 min 0 min 10 W/m 0,0 km/h (0 Bft) 95,74 %
18.08.2023 20:42 26,6 C 25,0 C 21,1 C 83 % 1013,7 hPa 0,0 l/m 0 min 0 min 9 W/m 0,0 km/h (0 Bft) 93,62 %
18.08.2023 20:44 26,5 C 25,0 C 21,1 C 83 % 1013,6 hPa 0,0 l/m 0 min 0 min 7 W/m 0,0 km/h (0 Bft) 93,62 %
18.08.2023 20:46 26,5 C 25,0 C 21,1 C 84 % 1013,6 hPa 0,0 l/m 0 min 0 min 5 W/m 0,0 km/h (0 Bft) 95,74 %
18.08.2023 20:48 26,4 C 25,0 C 21,1 C 84 % 1013,6 hPa 0,0 l/m 0 min 0 min 5 W/m 0,0 km/h (0 Bft) 97,87 %
18.08.2023 20:50 26,4 C 25,0 C 21,1 C 84 % 1013,6 hPa 0,0 l/m 0 min 0 min 0 W/m 0,0 km/h (0 Bft) 95,65 %
18.08.2023 20:52 26,4 C 25,0 C 21,1 C 84 % 1013,6 hPa 0,0 l/m 0 min 0 min 0 W/m 0,0 km/h (0 Bft) 97,87 %
18.08.2023 20:54 26,3 C 25,0 C 20,6 C 84 % 1013,6 hPa 0,0 l/m 0 min 0 min 0 W/m 0,0 km/h (0 Bft) 95,74 %
18.08.2023 20:56 26,3 C 25,0 C 20,6 C 84 % 1013,7 hPa 0,0 l/m 0 min 0 min 0 W/m 0,0 km/h (0 Bft) 95,74 %
18.08.2023 20:58 26,2 C 24,4 C 20,6 C 84 % 1013,7 hPa 0,0 l/m 0 min 0 min 0 W/m 0,0 km/h (0 Bft) 95,74 %
18.08.2023 21:00 26,2 C 24,4 C 20,6 C 85 % 1013,7 hPa 0,0 l/m 0 min 0 min 0 W/m 0,0 km/h (0 Bft) 97,87 %
18.08.2023 21:02 26,2 C 24,4 C 20,6 C 85 % 1013,6 hPa 0,0 l/m 0 min 0 min 0 W/m 0,0 km/h (0 Bft) 95,74 %
18.08.2023 21:04 26,2 C 23,9 C 20,0 C 85 % 1013,6 hPa 0,0 l/m 0 min 0 min 0 W/m 0,0 km/h (0 Bft) 100,00 %
18.08.2023 21:06 26,1 C 23,9 C 20,0 C 85 % 1013,5 hPa 0,0 l/m 0 min 0 min 0 W/m 0,0 km/h (0 Bft) 98,28 %
18.08.2023 21:08 26,1 C 23,9 C 20,0 C 85 % 1013,6 hPa 0,0 l/m 0 min 0 min 0 W/m 0,0 km/h (0 Bft) 100,00 %
18.08.2023 21:10 26,1 C 23,9 C 20,0 C 85 % 1013,6 hPa 0,0 l/m 0 min 0 min 0 W/m 0,0 km/h (0 Bft) 100,00 %
18.08.2023 21:12 25,9 C 23,9 C 20,0 C 85 % 1013,6 hPa 0,0 l/m 0 min 0 min 0 W/m 0,0 km/h (0 Bft) 95,74 %
18.08.2023 21:14 25,9 C 23,9 C 20,0 C 85 % 1013,6 hPa 0,0 l/m 0 min 0 min 0 W/m 0,0 km/h (0 Bft) 95,74 %
18.08.2023 21:16 25,8 C 23,9 C 20,0 C 85 % 1013,5 hPa 0,0 l/m 0 min 0 min 0 W/m 0,0 km/h (0 Bft) 97,87 %
18.08.2023 21:18 25,8 C 23,9 C 20,0 C 86 % 1013,5 hPa 0,0 l/m 0 min 0 min 0 W/m 0,0 km/h (0 Bft) 97,87 %
18.08.2023 21:20 25,7 C 23,9 C 20,0 C 86 % 1013,6 hPa 0,0 l/m 0 min 0 min 0 W/m 0,0 km/h (0 Bft) 95,74 %
18.08.2023 21:22 25,7 C 23,9 C 20,0 C 86 % 1013,5 hPa 0,0 l/m 0 min 0 min 0 W/m 0,0 km/h (0 Bft) 97,83 %
18.08.2023 21:24 25,6 C 23,9 C 20,0 C 86 % 1013,5 hPa 0,0 l/m 0 min 0 min 0 W/m 0,0 km/h (0 Bft) 97,87 %
18.08.2023 21:26 25,6 C 23,9 C 20,0 C 86 % 1013,6 hPa 0,0 l/m 0 min 0 min 0 W/m 0,0 km/h (0 Bft) 95,74 %
18.08.2023 21:28 25,5 C 23,9 C 20,0 C 87 % 1013,6 hPa 0,0 l/m 0 min 0 min 0 W/m 0,0 km/h (0 Bft) 97,87 %
18.08.2023 21:30 25,4 C 23,9 C 20,0 C 87 % 1013,7 hPa 0,0 l/m 0 min 0 min 0 W/m 0,0 km/h (0 Bft) 97,87 %
18.08.2023 21:32 25,4 C 23,9 C 20,0 C 87 % 1013,7 hPa 0,0 l/m 0 min 0 min 0 W/m 0,0 km/h (0 Bft) 97,87 %
18.08.2023 21:34 25,3 C 23,9 C 20,0 C 87 % 1013,7 hPa 0,0 l/m 0 min 0 min 0 W/m 0,0 km/h (0 Bft) 95,74 %
18.08.2023 21:36 25,3 C 23,9 C 20,0 C 87 % 1013,7 hPa 0,0 l/m 0 min 0 min 0 W/m 0,0 km/h (0 Bft) 95,65 %
18.08.2023 21:38 25,3 C 23,9 C 20,0 C 87 % 1013,6 hPa 0,0 l/m 0 min 0 min 0 W/m 0,0 km/h (0 Bft) 95,74 %
18.08.2023 21:40 25,2 C 23,9 C 20,0 C 88 % 1013,6 hPa 0,0 l/m 0 min 0 min 0 W/m 0,0 km/h (0 Bft) 97,87 %
18.08.2023 21:42 25,2 C 23,9 C 20,0 C 88 % 1013,6 hPa 0,0 l/m 0 min 0 min 0 W/m 0,0 km/h (0 Bft) 97,87 %
18.08.2023 21:44 25,2 C 23,9 C 19,4 C 88 % 1013,7 hPa 0,0 l/m 0 min 0 min 0 W/m 0,0 km/h (0 Bft) 95,74 %
18.08.2023 21:46 25,2 C 23,9 C 19,4 C 88 % 1013,7 hPa 0,0 l/m 0 min 0 min 0 W/m 0,0 km/h (0 Bft) 100,00 %
18.08.2023 21:48 25,2 C 23,9 C 19,4 C 88 % 1013,7 hPa 0,0 l/m 0 min 0 min 0 W/m 0,0 km/h (0 Bft) 97,87 %
18.08.2023 21:50 25,1 C 23,9 C 19,4 C 88 % 1013,7 hPa 0,0 l/m 0 min 0 min 0 W/m 0,0 km/h (0 Bft) 97,87 %
18.08.2023 21:52 25,1 C 23,9 C 19,4 C 88 % 1013,7 hPa 0,0 l/m 0 min 0 min 0 W/m 0,0 km/h (0 Bft) 97,83 %
18.08.2023 21:54 25,1 C 23,9 C 19,4 C 88 % 1013,8 hPa 0,0 l/m 0 min 0 min 0 W/m 0,0 km/h (0 Bft) 100,00 %
18.08.2023 21:56 25,0 C 23,9 C 19,4 C 89 % 1013,8 hPa 0,0 l/m 0 min 0 min 0 W/m 0,0 km/h (0 Bft) 97,87 %
18.08.2023 21:58 25,0 C 23,9 C 19,4 C 89 % 1013,8 hPa 0,0 l/m 0 min 0 min 0 W/m 0,0 km/h (0 Bft) 100,00 %
18.08.2023 22:00 24,9 C 23,9 C 19,4 C 89 % 1013,8 hPa 0,0 l/m 0 min 0 min 0 W/m 0,0 km/h (0 Bft) 96,15 %
18.08.2023 22:02 24,9 C 23,9 C 19,4 C 89 % 1013,8 hPa 0,0 l/m 0 min 0 min 0 W/m 0,0 km/h (0 Bft) 95,74 %
18.08.2023 22:04 24,9 C 23,3 C 19,4 C 89 % 1013,9 hPa 0,0 l/m 0 min 0 min 0 W/m 0,0 km/h (0 Bft) 100,00 %
18.08.2023 22:06 24,9 C 23,3 C 19,4 C 89 % 1013,9 hPa 0,0 l/m 0 min 0 min 0 W/m 0,0 km/h (0 Bft) 95,00 %
18.08.2023 22:08 24,8 C 23,3 C 19,4 C 89 % 1013,9 hPa 0,0 l/m 0 min 0 min 0 W/m 0,0 km/h (0 Bft) 100,00 %
18.08.2023 22:10 24,8 C 23,3 C 18,9 C 89 % 1013,9 hPa 0,0 l/m 0 min 0 min 0 W/m 0,0 km/h (0 Bft) 100,00 %
18.08.2023 22:12 24,8 C 23,3 C 18,9 C 89 % 1013,8 hPa 0,0 l/m 0 min 0 min 0 W/m 0,0 km/h (0 Bft) 97,87 %
18.08.2023 22:14 24,7 C 23,3 C 18,9 C 89 % 1013,8 hPa 0,0 l/m 0 min 0 min 0 W/m 0,0 km/h (0 Bft) 100,00 %
18.08.2023 22:16 24,7 C 23,3 C 18,9 C 89 % 1013,9 hPa 0,0 l/m 0 min 0 min 0 W/m 0,0 km/h (0 Bft) 100,00 %
18.08.2023 22:18 24,7 C 23,3 C 18,9 C 89 % 1013,9 hPa 0,0 l/m 0 min 0 min 0 W/m 0,0 km/h (0 Bft) 97,87 %
18.08.2023 22:20 24,7 C 23,3 C 18,9 C 90 % 1013,9 hPa 0,0 l/m 0 min 0 min 0 W/m 0,0 km/h (0 Bft) 100,00 %
18.08.2023 22:22 24,7 C 23,3 C 18,9 C 90 % 1013,9 hPa 0,0 l/m 0 min 0 min 0 W/m 0,0 km/h (0 Bft) 100,00 %
18.08.2023 22:24 24,7 C 23,3 C 18,9 C 90 % 1013,9 hPa 0,0 l/m 0 min 0 min 0 W/m 0,0 km/h (0 Bft) 95,74 %
18.08.2023 22:26 24,6 C 23,3 C 18,9 C 90 % 1013,8 hPa 0,0 l/m 0 min 0 min 0 W/m 0,0 km/h (0 Bft) 100,00 %
18.08.2023 22:28 24,6 C 23,3 C 18,9 C 90 % 1013,8 hPa 0,0 l/m 0 min 0 min 0 W/m 0,0 km/h (0 Bft) 100,00 %
18.08.2023 22:30 24,6 C 23,3 C 18,9 C 90 % 1013,8 hPa 0,0 l/m 0 min 0 min 0 W/m 0,0 km/h (0 Bft) 97,87 %
18.08.2023 22:32 24,5 C 23,3 C 18,9 C 90 % 1013,8 hPa 0,0 l/m 0 min 0 min 0 W/m 0,0 km/h (0 Bft) 100,00 %
18.08.2023 22:34 24,5 C 23,3 C 18,9 C 90 % 1013,7 hPa 0,0 l/m 0 min 0 min 0 W/m 0,0 km/h (0 Bft) 100,00 %
18.08.2023 22:36 24,4 C 23,3 C 18,9 C 90 % 1013,7 hPa 0,0 l/m 0 min 0 min 0 W/m 0,0 km/h (0 Bft) 97,87 %
18.08.2023 22:38 24,4 C 23,3 C 18,9 C 90 % 1013,7 hPa 0,0 l/m 0 min 0 min 0 W/m 0,0 km/h (0 Bft) 100,00 %
18.08.2023 22:40 24,4 C 22,8 C 18,9 C 90 % 1013,6 hPa 0,0 l/m 0 min 0 min 0 W/m 0,0 km/h (0 Bft) 100,00 %
18.08.2023 22:42 24,3 C 22,8 C 18,9 C 90 % 1013,6 hPa 0,0 l/m 0 min 0 min 0 W/m 0,0 km/h (0 Bft) 97,87 %
18.08.2023 22:44 24,3 C 22,8 C 18,9 C 91 % 1013,6 hPa 0,0 l/m 0 min 0 min 0 W/m 0,0 km/h (0 Bft) 100,00 %
18.08.2023 22:46 24,3 C 22,8 C 18,9 C 91 % 1013,6 hPa 0,0 l/m 0 min 0 min 0 W/m 0,0 km/h (0 Bft) 100,00 %
18.08.2023 22:48 24,2 C 22,8 C 18,9 C 91 % 1013,6 hPa 0,0 l/m 0 min 0 min 0 W/m 0,0 km/h (0 Bft) 93,62 %
18.08.2023 22:50 24,2 C 22,8 C 18,9 C 91 % 1013,6 hPa 0,0 l/m 0 min 0 min 0 W/m 0,0 km/h (0 Bft) 100,00 %
18.08.2023 22:52 24,2 C 22,8 C 18,9 C 91 % 1013,6 hPa 0,0 l/m 0 min 0 min 0 W/m 0,0 km/h (0 Bft) 100,00 %
18.08.2023 22:54 24,2 C 22,8 C 18,3 C 91 % 1013,6 hPa 0,0 l/m 0 min 0 min 0 W/m 0,0 km/h (0 Bft) 100,00 %
18.08.2023 22:56 24,1 C 22,8 C 18,3 C 91 % 1013,6 hPa 0,0 l/m 0 min 0 min 0 W/m 0,0 km/h (0 Bft) 97,87 %
18.08.2023 22:58 24,1 C 22,8 C 18,9 C 92 % 1013,7 hPa 0,0 l/m 0 min 0 min 0 W/m 0,0 km/h (0 Bft) 95,65 %
18.08.2023 23:00 24,1 C 22,8 C 18,3 C 92 % 1013,7 hPa 0,0 l/m 0 min 0 min 0 W/m 0,0 km/h (0 Bft) 95,74 %
18.08.2023 23:02 24,1 C 22,8 C 18,3 C 92 % 1013,8 hPa 0,0 l/m 0 min 0 min 0 W/m 0,0 km/h (0 Bft) 95,74 %
18.08.2023 23:04 24,1 C 22,8 C 18,3 C 92 % 1013,8 hPa 0,0 l/m 0 min 0 min 0 W/m 0,0 km/h (0 Bft) 95,83 %
18.08.2023 23:06 24,1 C 22,8 C 18,3 C 92 % 1013,8 hPa 0,0 l/m 0 min 0 min 0 W/m 0,0 km/h (0 Bft) 95,74 %
18.08.2023 23:08 24,0 C 22,8 C 18,3 C 92 % 1013,7 hPa 0,0 l/m 0 min 0 min 0 W/m 0,0 km/h (0 Bft) 93,62 %
18.08.2023 23:10 24,0 C 22,8 C 18,3 C 92 % 1013,7 hPa 0,0 l/m 0 min 0 min 0 W/m 0,0 km/h (0 Bft) 91,49 %
18.08.2023 23:12 23,9 C 22,8 C 18,3 C 92 % 1013,7 hPa 0,0 l/m 0 min 0 min 0 W/m 0,0 km/h (0 Bft) 91,30 %
18.08.2023 23:14 23,9 C 22,8 C 18,3 C 92 % 1013,7 hPa 0,0 l/m 0 min 0 min 0 W/m 0,0 km/h (0 Bft) 91,49 %
18.08.2023 23:16 23,9 C 22,8 C 18,3 C 92 % 1013,7 hPa 0,0 l/m 0 min 0 min 0 W/m 0,0 km/h (0 Bft) 93,62 %
18.08.2023 23:22 23,8 C 22,8 C 18,9 C 92 % 1013,7 hPa 0,0 l/m 0 min 0 min 0 W/m 0,0 km/h (0 Bft) 92,16 %
18.08.2023 23:24 23,8 C 22,8 C 18,3 C 92 % 1013,7 hPa 0,0 l/m 0 min 0 min 0 W/m 0,0 km/h (0 Bft) 92,45 %
18.08.2023 23:26 23,8 C 22,8 C 18,3 C 93 % 1013,7 hPa 0,0 l/m 0 min 0 min 0 W/m 0,0 km/h (0 Bft) 93,62 %
18.08.2023 23:30 23,8 C 22,8 C 18,3 C 93 % 1013,7 hPa 0,0 l/m 0 min 0 min 0 W/m 0,0 km/h (0 Bft) 92,94 %
18.08.2023 23:32 23,8 C 22,8 C 18,3 C 93 % 1013,8 hPa 0,0 l/m 0 min 0 min 0 W/m 0,0 km/h (0 Bft) 91,84 %
18.08.2023 23:34 23,8 C 22,8 C 18,3 C 93 % 1013,7 hPa 0,0 l/m 0 min 0 min 0 W/m 0,0 km/h (0 Bft) 91,49 %
18.08.2023 23:36 23,7 C 22,8 C 18,3 C 93 % 1013,7 hPa 0,0 l/m 0 min 0 min 0 W/m 0,0 km/h (0 Bft) 93,62 %
18.08.2023 23:38 23,7 C 22,8 C 18,3 C 93 % 1013,7 hPa 0,0 l/m 0 min 0 min 0 W/m 0,0 km/h (0 Bft) 93,62 %
18.08.2023 23:40 23,7 C 22,2 C 18,3 C 93 % 1013,7 hPa 0,0 l/m 0 min 0 min 0 W/m 0,0 km/h (0 Bft) 92,45 %
18.08.2023 23:42 23,7 C 22,2 C 18,3 C 93 % 1013,7 hPa 0,0 l/m 0 min 0 min 0 W/m 0,0 km/h (0 Bft) 93,62 %
18.08.2023 23:44 23,7 C 22,8 C 18,3 C 93 % 1013,7 hPa 0,0 l/m 0 min 0 min 0 W/m 0,0 km/h (0 Bft) 95,74 %
18.08.2023 23:46 23,7 C 22,8 C 18,3 C 93 % 1013,7 hPa 0,0 l/m 0 min 0 min 0 W/m 0,0 km/h (0 Bft) 93,62 %
18.08.2023 23:48 23,6 C 22,8 C 18,9 C 93 % 1013,7 hPa 0,0 l/m 0 min 0 min 0 W/m 0,0 km/h (0 Bft) 97,87 %
18.08.2023 23:50 23,6 C 22,8 C 18,9 C 93 % 1013,8 hPa 0,0 l/m 0 min 0 min 0 W/m 0,0 km/h (0 Bft) 100,00 %
18.08.2023 23:52 23,6 C 22,8 C 18,9 C 93 % 1013,7 hPa 0,0 l/m 0 min 0 min 0 W/m 0,0 km/h (0 Bft) 97,87 %
18.08.2023 23:54 23,6 C 22,8 C 18,9 C 93 % 1013,7 hPa 0,0 l/m 0 min 0 min 0 W/m 0,0 km/h (0 Bft) 100,00 %
18.08.2023 23:56 23,6 C 22,8 C 18,9 C 94 % 1013,6 hPa 0,0 l/m 0 min 0 min 0 W/m 0,0 km/h (0 Bft) 97,87 %
18.08.2023 23:58 23,6 C 22,8 C 18,9 C 94 % 1013,6 hPa 0,0 l/m 0 min 0 min 0 W/m 0,0 km/h (0 Bft) 100,00 %
_ Min-Zeit 02:46 02:38 02:02 17:22 20:16 - - - - 00:04 04:34
Minimum _ 17,3 C 16,1 C 13,3 C 73 % 1013,5 hPa - - - - 0,0 km/h (0 Bft) 91,30 %
_ Max-Zeit 17:28 14:32 17:26 06:30 00:00 00:00 17:20 00:00 13:36 04:20 00:00
Maximum _ 29,7 C 35,0 C 24,4 C 99 % 1018,4 hPa 0,0 l/m 5 min 0 min 848 W/m 16,1 km/h
O (3 Bft)
100,00 %
Durchschnitt _ 22,2 C 22,7 C 17,8 C 90 % 1015,8 hPa #0,0 l/m #6:51 h #0 min. 346 W/m 5,0 km/h (1 Bft) 97,44 %
© 2023 W. Hausmann